<?xml version="1.0" encoding="UTF-8"?>
<gpx xmlns="http://www.topografix.com/GPX/1/1" xmlns:xsi="http://www.w3.org/2001/XMLSchema-instance" version="1.1" creator="Trace de Trail" xsi:schemaLocation="http://www.topografix.com/GPX/1/1 http://www.topografix.com/GPX/1/1/gpx.xsd">
  <metadata>
    <name>Trail de Dinant Winter  2026 - 22 Km</name>
    <desc>Parcours créé sur Trace de Trail</desc>
    <link href="https://tracedetrail.fr/fr/trace/356951">
      <text>Cartographie du parcours</text>
    </link>
    <time>2026-08-25T07:53:14+00:00</time>
  </metadata>
  <wpt lat="50.2589" lon="4.90724">
    <ele>145</ele>
    <type>depart</type>
  </wpt>
  <wpt lat="50.23603" lon="4.93808">
    <ele>250</ele>
    <name>Ravito 1 : Salle des fêtes Dréhance</name>
    <type>fanzone_ravitoc_ravitoliquide_toilettes</type>
  </wpt>
  <wpt lat="50.2589" lon="4.90724">
    <ele>145</ele>
    <type>arrivee</type>
  </wpt>
  <trk>
    <name>Trail de Dinant Winter  2026 - 22 Km sur TraceDeTrail.fr</name>
    <src>Trace de Trail</src>
    <trkseg>
      <trkpt lat="50.2589" lon="4.90724">
        <ele>145</ele>
        <time>2026-08-25T07:53:14+00:00</time>
      </trkpt>
      <trkpt lat="50.25918" lon="4.90711">
        <ele>143</ele>
        <time>2026-08-25T07:53:17+00:00</time>
      </trkpt>
      <trkpt lat="50.25946" lon="4.90699">
        <ele>143</ele>
        <time>2026-08-25T07:53:20+00:00</time>
      </trkpt>
      <trkpt lat="50.25976" lon="4.90685">
        <ele>143</ele>
        <time>2026-08-25T07:53:23+00:00</time>
      </trkpt>
      <trkpt lat="50.25988" lon="4.90685">
        <ele>142</ele>
        <time>2026-08-25T07:53:26+00:00</time>
      </trkpt>
      <trkpt lat="50.26003" lon="4.90673">
        <ele>142</ele>
        <time>2026-08-25T07:53:29+00:00</time>
      </trkpt>
      <trkpt lat="50.26026" lon="4.9066">
        <ele>144</ele>
        <time>2026-08-25T07:53:32+00:00</time>
      </trkpt>
      <trkpt lat="50.26055" lon="4.90644">
        <ele>138</ele>
        <time>2026-08-25T07:53:35+00:00</time>
      </trkpt>
      <trkpt lat="50.26074" lon="4.90657">
        <ele>133</ele>
        <time>2026-08-25T07:53:38+00:00</time>
      </trkpt>
      <trkpt lat="50.26074" lon="4.90658">
        <ele>133</ele>
        <time>2026-08-25T07:53:41+00:00</time>
      </trkpt>
      <trkpt lat="50.26069" lon="4.90665">
        <ele>127</ele>
        <time>2026-08-25T07:53:44+00:00</time>
      </trkpt>
      <trkpt lat="50.26056" lon="4.907">
        <ele>124</ele>
        <time>2026-08-25T07:53:47+00:00</time>
      </trkpt>
      <trkpt lat="50.26049" lon="4.90729">
        <ele>123</ele>
        <time>2026-08-25T07:53:50+00:00</time>
      </trkpt>
      <trkpt lat="50.26044" lon="4.90768">
        <ele>116</ele>
        <time>2026-08-25T07:53:53+00:00</time>
      </trkpt>
      <trkpt lat="50.26039" lon="4.90785">
        <ele>115</ele>
        <time>2026-08-25T07:53:56+00:00</time>
      </trkpt>
      <trkpt lat="50.2603" lon="4.90803">
        <ele>112</ele>
        <time>2026-08-25T07:53:59+00:00</time>
      </trkpt>
      <trkpt lat="50.26004" lon="4.90844">
        <ele>113</ele>
        <time>2026-08-25T07:54:02+00:00</time>
      </trkpt>
      <trkpt lat="50.25976" lon="4.90878">
        <ele>112</ele>
        <time>2026-08-25T07:54:05+00:00</time>
      </trkpt>
      <trkpt lat="50.25959" lon="4.90898">
        <ele>112</ele>
        <time>2026-08-25T07:54:08+00:00</time>
      </trkpt>
      <trkpt lat="50.25941" lon="4.90919">
        <ele>108</ele>
        <time>2026-08-25T07:54:11+00:00</time>
      </trkpt>
      <trkpt lat="50.2592" lon="4.90949">
        <ele>104</ele>
        <time>2026-08-25T07:54:14+00:00</time>
      </trkpt>
      <trkpt lat="50.25922" lon="4.90951">
        <ele>99</ele>
        <time>2026-08-25T07:54:17+00:00</time>
      </trkpt>
      <trkpt lat="50.25911" lon="4.90966">
        <ele>97</ele>
        <time>2026-08-25T07:54:20+00:00</time>
      </trkpt>
      <trkpt lat="50.25913" lon="4.90968">
        <ele>97</ele>
        <time>2026-08-25T07:54:23+00:00</time>
      </trkpt>
      <trkpt lat="50.25922" lon="4.9096">
        <ele>97</ele>
        <time>2026-08-25T07:54:26+00:00</time>
      </trkpt>
      <trkpt lat="50.25927" lon="4.90972">
        <ele>97</ele>
        <time>2026-08-25T07:54:29+00:00</time>
      </trkpt>
      <trkpt lat="50.2593" lon="4.90976">
        <ele>96</ele>
        <time>2026-08-25T07:54:32+00:00</time>
      </trkpt>
      <trkpt lat="50.25933" lon="4.90977">
        <ele>97</ele>
        <time>2026-08-25T07:54:35+00:00</time>
      </trkpt>
      <trkpt lat="50.2596" lon="4.90981">
        <ele>97</ele>
        <time>2026-08-25T07:54:38+00:00</time>
      </trkpt>
      <trkpt lat="50.25986" lon="4.90983">
        <ele>96</ele>
        <time>2026-08-25T07:54:41+00:00</time>
      </trkpt>
      <trkpt lat="50.25996" lon="4.90992">
        <ele>95</ele>
        <time>2026-08-25T07:54:44+00:00</time>
      </trkpt>
      <trkpt lat="50.26002" lon="4.90991">
        <ele>95</ele>
        <time>2026-08-25T07:54:47+00:00</time>
      </trkpt>
      <trkpt lat="50.26006" lon="4.90998">
        <ele>95</ele>
        <time>2026-08-25T07:54:50+00:00</time>
      </trkpt>
      <trkpt lat="50.2601" lon="4.90998">
        <ele>95</ele>
        <time>2026-08-25T07:54:53+00:00</time>
      </trkpt>
      <trkpt lat="50.26019" lon="4.91044">
        <ele>94</ele>
        <time>2026-08-25T07:54:56+00:00</time>
      </trkpt>
      <trkpt lat="50.26029" lon="4.9109">
        <ele>92</ele>
        <time>2026-08-25T07:54:59+00:00</time>
      </trkpt>
      <trkpt lat="50.26038" lon="4.91135">
        <ele>92</ele>
        <time>2026-08-25T07:55:02+00:00</time>
      </trkpt>
      <trkpt lat="50.2605" lon="4.91195">
        <ele>92</ele>
        <time>2026-08-25T07:55:05+00:00</time>
      </trkpt>
      <trkpt lat="50.26054" lon="4.91202">
        <ele>93</ele>
        <time>2026-08-25T07:55:08+00:00</time>
      </trkpt>
      <trkpt lat="50.26058" lon="4.91207">
        <ele>93</ele>
        <time>2026-08-25T07:55:11+00:00</time>
      </trkpt>
      <trkpt lat="50.26062" lon="4.91211">
        <ele>94</ele>
        <time>2026-08-25T07:55:14+00:00</time>
      </trkpt>
      <trkpt lat="50.26065" lon="4.91212">
        <ele>92</ele>
        <time>2026-08-25T07:55:17+00:00</time>
      </trkpt>
      <trkpt lat="50.26079" lon="4.91212">
        <ele>93</ele>
        <time>2026-08-25T07:55:20+00:00</time>
      </trkpt>
      <trkpt lat="50.26085" lon="4.91206">
        <ele>93</ele>
        <time>2026-08-25T07:55:23+00:00</time>
      </trkpt>
      <trkpt lat="50.26081" lon="4.91217">
        <ele>93</ele>
        <time>2026-08-25T07:55:26+00:00</time>
      </trkpt>
      <trkpt lat="50.26083" lon="4.91222">
        <ele>93</ele>
        <time>2026-08-25T07:55:29+00:00</time>
      </trkpt>
      <trkpt lat="50.2609" lon="4.91245">
        <ele>93</ele>
        <time>2026-08-25T07:55:32+00:00</time>
      </trkpt>
      <trkpt lat="50.26098" lon="4.91269">
        <ele>95</ele>
        <time>2026-08-25T07:55:35+00:00</time>
      </trkpt>
      <trkpt lat="50.26108" lon="4.91296">
        <ele>98</ele>
        <time>2026-08-25T07:55:38+00:00</time>
      </trkpt>
      <trkpt lat="50.26124" lon="4.91342">
        <ele>122</ele>
        <time>2026-08-25T07:55:41+00:00</time>
      </trkpt>
      <trkpt lat="50.26152" lon="4.9135">
        <ele>145</ele>
        <time>2026-08-25T07:55:44+00:00</time>
      </trkpt>
      <trkpt lat="50.26154" lon="4.91328">
        <ele>134</ele>
        <time>2026-08-25T07:55:47+00:00</time>
      </trkpt>
      <trkpt lat="50.26156" lon="4.91328">
        <ele>134</ele>
        <time>2026-08-25T07:55:50+00:00</time>
      </trkpt>
      <trkpt lat="50.26155" lon="4.91361">
        <ele>141</ele>
        <time>2026-08-25T07:55:53+00:00</time>
      </trkpt>
      <trkpt lat="50.26157" lon="4.91361">
        <ele>150</ele>
        <time>2026-08-25T07:55:56+00:00</time>
      </trkpt>
      <trkpt lat="50.26161" lon="4.91328">
        <ele>137</ele>
        <time>2026-08-25T07:55:59+00:00</time>
      </trkpt>
      <trkpt lat="50.26161" lon="4.91322">
        <ele>137</ele>
        <time>2026-08-25T07:56:02+00:00</time>
      </trkpt>
      <trkpt lat="50.26158" lon="4.91293">
        <ele>132</ele>
        <time>2026-08-25T07:56:05+00:00</time>
      </trkpt>
      <trkpt lat="50.26159" lon="4.91292">
        <ele>124</ele>
        <time>2026-08-25T07:56:08+00:00</time>
      </trkpt>
      <trkpt lat="50.26161" lon="4.91292">
        <ele>128</ele>
        <time>2026-08-25T07:56:11+00:00</time>
      </trkpt>
      <trkpt lat="50.26161" lon="4.91296">
        <ele>128</ele>
        <time>2026-08-25T07:56:14+00:00</time>
      </trkpt>
      <trkpt lat="50.26162" lon="4.91304">
        <ele>130</ele>
        <time>2026-08-25T07:56:17+00:00</time>
      </trkpt>
      <trkpt lat="50.26167" lon="4.91303">
        <ele>130</ele>
        <time>2026-08-25T07:56:20+00:00</time>
      </trkpt>
      <trkpt lat="50.26167" lon="4.91295">
        <ele>128</ele>
        <time>2026-08-25T07:56:23+00:00</time>
      </trkpt>
      <trkpt lat="50.2616" lon="4.91259">
        <ele>114</ele>
        <time>2026-08-25T07:56:26+00:00</time>
      </trkpt>
      <trkpt lat="50.26165" lon="4.91217">
        <ele>117</ele>
        <time>2026-08-25T07:56:29+00:00</time>
      </trkpt>
      <trkpt lat="50.26183" lon="4.91244">
        <ele>120</ele>
        <time>2026-08-25T07:56:32+00:00</time>
      </trkpt>
      <trkpt lat="50.26188" lon="4.91269">
        <ele>125</ele>
        <time>2026-08-25T07:56:35+00:00</time>
      </trkpt>
      <trkpt lat="50.2619" lon="4.91294">
        <ele>133</ele>
        <time>2026-08-25T07:56:38+00:00</time>
      </trkpt>
      <trkpt lat="50.26192" lon="4.91324">
        <ele>143</ele>
        <time>2026-08-25T07:56:41+00:00</time>
      </trkpt>
      <trkpt lat="50.26197" lon="4.91332">
        <ele>146</ele>
        <time>2026-08-25T07:56:44+00:00</time>
      </trkpt>
      <trkpt lat="50.26207" lon="4.91346">
        <ele>146</ele>
        <time>2026-08-25T07:56:47+00:00</time>
      </trkpt>
      <trkpt lat="50.26196" lon="4.91349">
        <ele>149</ele>
        <time>2026-08-25T07:56:50+00:00</time>
      </trkpt>
      <trkpt lat="50.26178" lon="4.91356">
        <ele>149</ele>
        <time>2026-08-25T07:56:53+00:00</time>
      </trkpt>
      <trkpt lat="50.26177" lon="4.91357">
        <ele>149</ele>
        <time>2026-08-25T07:56:56+00:00</time>
      </trkpt>
      <trkpt lat="50.26177" lon="4.91401">
        <ele>164</ele>
        <time>2026-08-25T07:56:59+00:00</time>
      </trkpt>
      <trkpt lat="50.26176" lon="4.91414">
        <ele>167</ele>
        <time>2026-08-25T07:57:02+00:00</time>
      </trkpt>
      <trkpt lat="50.26176" lon="4.91428">
        <ele>169</ele>
        <time>2026-08-25T07:57:05+00:00</time>
      </trkpt>
      <trkpt lat="50.26175" lon="4.91436">
        <ele>171</ele>
        <time>2026-08-25T07:57:08+00:00</time>
      </trkpt>
      <trkpt lat="50.26172" lon="4.91439">
        <ele>171</ele>
        <time>2026-08-25T07:57:11+00:00</time>
      </trkpt>
      <trkpt lat="50.26164" lon="4.91445">
        <ele>172</ele>
        <time>2026-08-25T07:57:14+00:00</time>
      </trkpt>
      <trkpt lat="50.26164" lon="4.91466">
        <ele>175</ele>
        <time>2026-08-25T07:57:17+00:00</time>
      </trkpt>
      <trkpt lat="50.26168" lon="4.9147">
        <ele>176</ele>
        <time>2026-08-25T07:57:20+00:00</time>
      </trkpt>
      <trkpt lat="50.26174" lon="4.91473">
        <ele>178</ele>
        <time>2026-08-25T07:57:23+00:00</time>
      </trkpt>
      <trkpt lat="50.26173" lon="4.91495">
        <ele>182</ele>
        <time>2026-08-25T07:57:26+00:00</time>
      </trkpt>
      <trkpt lat="50.26178" lon="4.91499">
        <ele>182</ele>
        <time>2026-08-25T07:57:29+00:00</time>
      </trkpt>
      <trkpt lat="50.26175" lon="4.91505">
        <ele>183</ele>
        <time>2026-08-25T07:57:32+00:00</time>
      </trkpt>
      <trkpt lat="50.26176" lon="4.91508">
        <ele>183</ele>
        <time>2026-08-25T07:57:35+00:00</time>
      </trkpt>
      <trkpt lat="50.26176" lon="4.91512">
        <ele>183</ele>
        <time>2026-08-25T07:57:38+00:00</time>
      </trkpt>
      <trkpt lat="50.26174" lon="4.91518">
        <ele>183</ele>
        <time>2026-08-25T07:57:41+00:00</time>
      </trkpt>
      <trkpt lat="50.26171" lon="4.9152">
        <ele>183</ele>
        <time>2026-08-25T07:57:44+00:00</time>
      </trkpt>
      <trkpt lat="50.26168" lon="4.91521">
        <ele>183</ele>
        <time>2026-08-25T07:57:47+00:00</time>
      </trkpt>
      <trkpt lat="50.26167" lon="4.91526">
        <ele>183</ele>
        <time>2026-08-25T07:57:50+00:00</time>
      </trkpt>
      <trkpt lat="50.26164" lon="4.91555">
        <ele>183</ele>
        <time>2026-08-25T07:57:53+00:00</time>
      </trkpt>
      <trkpt lat="50.2616" lon="4.91591">
        <ele>183</ele>
        <time>2026-08-25T07:57:56+00:00</time>
      </trkpt>
      <trkpt lat="50.26156" lon="4.91626">
        <ele>183</ele>
        <time>2026-08-25T07:57:59+00:00</time>
      </trkpt>
      <trkpt lat="50.26151" lon="4.91667">
        <ele>184</ele>
        <time>2026-08-25T07:58:02+00:00</time>
      </trkpt>
      <trkpt lat="50.26149" lon="4.91677">
        <ele>185</ele>
        <time>2026-08-25T07:58:05+00:00</time>
      </trkpt>
      <trkpt lat="50.26135" lon="4.91673">
        <ele>185</ele>
        <time>2026-08-25T07:58:08+00:00</time>
      </trkpt>
      <trkpt lat="50.26126" lon="4.91673">
        <ele>186</ele>
        <time>2026-08-25T07:58:11+00:00</time>
      </trkpt>
      <trkpt lat="50.261" lon="4.91677">
        <ele>184</ele>
        <time>2026-08-25T07:58:14+00:00</time>
      </trkpt>
      <trkpt lat="50.26084" lon="4.91676">
        <ele>186</ele>
        <time>2026-08-25T07:58:17+00:00</time>
      </trkpt>
      <trkpt lat="50.26062" lon="4.91676">
        <ele>184</ele>
        <time>2026-08-25T07:58:20+00:00</time>
      </trkpt>
      <trkpt lat="50.26024" lon="4.91675">
        <ele>181</ele>
        <time>2026-08-25T07:58:23+00:00</time>
      </trkpt>
      <trkpt lat="50.26014" lon="4.91668">
        <ele>179</ele>
        <time>2026-08-25T07:58:26+00:00</time>
      </trkpt>
      <trkpt lat="50.26005" lon="4.91667">
        <ele>178</ele>
        <time>2026-08-25T07:58:29+00:00</time>
      </trkpt>
      <trkpt lat="50.25997" lon="4.91673">
        <ele>178</ele>
        <time>2026-08-25T07:58:32+00:00</time>
      </trkpt>
      <trkpt lat="50.25988" lon="4.91675">
        <ele>176</ele>
        <time>2026-08-25T07:58:35+00:00</time>
      </trkpt>
      <trkpt lat="50.25972" lon="4.91682">
        <ele>176</ele>
        <time>2026-08-25T07:58:38+00:00</time>
      </trkpt>
      <trkpt lat="50.25967" lon="4.91682">
        <ele>178</ele>
        <time>2026-08-25T07:58:41+00:00</time>
      </trkpt>
      <trkpt lat="50.25965" lon="4.91685">
        <ele>174</ele>
        <time>2026-08-25T07:58:44+00:00</time>
      </trkpt>
      <trkpt lat="50.25964" lon="4.91696">
        <ele>176</ele>
        <time>2026-08-25T07:58:47+00:00</time>
      </trkpt>
      <trkpt lat="50.25954" lon="4.91721">
        <ele>181</ele>
        <time>2026-08-25T07:58:50+00:00</time>
      </trkpt>
      <trkpt lat="50.25952" lon="4.91734">
        <ele>183</ele>
        <time>2026-08-25T07:58:53+00:00</time>
      </trkpt>
      <trkpt lat="50.25944" lon="4.9175">
        <ele>184</ele>
        <time>2026-08-25T07:58:56+00:00</time>
      </trkpt>
      <trkpt lat="50.25947" lon="4.91786">
        <ele>185</ele>
        <time>2026-08-25T07:58:59+00:00</time>
      </trkpt>
      <trkpt lat="50.25944" lon="4.91795">
        <ele>185</ele>
        <time>2026-08-25T07:59:02+00:00</time>
      </trkpt>
      <trkpt lat="50.25935" lon="4.91817">
        <ele>185</ele>
        <time>2026-08-25T07:59:05+00:00</time>
      </trkpt>
      <trkpt lat="50.2591" lon="4.91855">
        <ele>185</ele>
        <time>2026-08-25T07:59:08+00:00</time>
      </trkpt>
      <trkpt lat="50.25903" lon="4.91847">
        <ele>185</ele>
        <time>2026-08-25T07:59:11+00:00</time>
      </trkpt>
      <trkpt lat="50.25897" lon="4.91834">
        <ele>184</ele>
        <time>2026-08-25T07:59:14+00:00</time>
      </trkpt>
      <trkpt lat="50.25857" lon="4.91844">
        <ele>184</ele>
        <time>2026-08-25T07:59:17+00:00</time>
      </trkpt>
      <trkpt lat="50.25834" lon="4.91851">
        <ele>184</ele>
        <time>2026-08-25T07:59:20+00:00</time>
      </trkpt>
      <trkpt lat="50.25807" lon="4.9186">
        <ele>184</ele>
        <time>2026-08-25T07:59:23+00:00</time>
      </trkpt>
      <trkpt lat="50.258" lon="4.91855">
        <ele>185</ele>
        <time>2026-08-25T07:59:26+00:00</time>
      </trkpt>
      <trkpt lat="50.25793" lon="4.91854">
        <ele>184</ele>
        <time>2026-08-25T07:59:29+00:00</time>
      </trkpt>
      <trkpt lat="50.25788" lon="4.91855">
        <ele>184</ele>
        <time>2026-08-25T07:59:32+00:00</time>
      </trkpt>
      <trkpt lat="50.25777" lon="4.91867">
        <ele>184</ele>
        <time>2026-08-25T07:59:35+00:00</time>
      </trkpt>
      <trkpt lat="50.25769" lon="4.91889">
        <ele>184</ele>
        <time>2026-08-25T07:59:38+00:00</time>
      </trkpt>
      <trkpt lat="50.2576" lon="4.91912">
        <ele>185</ele>
        <time>2026-08-25T07:59:41+00:00</time>
      </trkpt>
      <trkpt lat="50.25743" lon="4.91954">
        <ele>189</ele>
        <time>2026-08-25T07:59:44+00:00</time>
      </trkpt>
      <trkpt lat="50.25729" lon="4.91971">
        <ele>190</ele>
        <time>2026-08-25T07:59:47+00:00</time>
      </trkpt>
      <trkpt lat="50.25725" lon="4.91974">
        <ele>190</ele>
        <time>2026-08-25T07:59:50+00:00</time>
      </trkpt>
      <trkpt lat="50.25716" lon="4.91978">
        <ele>190</ele>
        <time>2026-08-25T07:59:53+00:00</time>
      </trkpt>
      <trkpt lat="50.25705" lon="4.91979">
        <ele>190</ele>
        <time>2026-08-25T07:59:56+00:00</time>
      </trkpt>
      <trkpt lat="50.25698" lon="4.91976">
        <ele>190</ele>
        <time>2026-08-25T07:59:59+00:00</time>
      </trkpt>
      <trkpt lat="50.25688" lon="4.91967">
        <ele>190</ele>
        <time>2026-08-25T08:00:02+00:00</time>
      </trkpt>
      <trkpt lat="50.25677" lon="4.9195">
        <ele>190</ele>
        <time>2026-08-25T08:00:05+00:00</time>
      </trkpt>
      <trkpt lat="50.25664" lon="4.91923">
        <ele>190</ele>
        <time>2026-08-25T08:00:08+00:00</time>
      </trkpt>
      <trkpt lat="50.25657" lon="4.91913">
        <ele>191</ele>
        <time>2026-08-25T08:00:11+00:00</time>
      </trkpt>
      <trkpt lat="50.25655" lon="4.91911">
        <ele>191</ele>
        <time>2026-08-25T08:00:14+00:00</time>
      </trkpt>
      <trkpt lat="50.25632" lon="4.9191">
        <ele>190</ele>
        <time>2026-08-25T08:00:17+00:00</time>
      </trkpt>
      <trkpt lat="50.25627" lon="4.91908">
        <ele>191</ele>
        <time>2026-08-25T08:00:20+00:00</time>
      </trkpt>
      <trkpt lat="50.25604" lon="4.91913">
        <ele>190</ele>
        <time>2026-08-25T08:00:23+00:00</time>
      </trkpt>
      <trkpt lat="50.25591" lon="4.91923">
        <ele>189</ele>
        <time>2026-08-25T08:00:26+00:00</time>
      </trkpt>
      <trkpt lat="50.25587" lon="4.91932">
        <ele>190</ele>
        <time>2026-08-25T08:00:29+00:00</time>
      </trkpt>
      <trkpt lat="50.25584" lon="4.91936">
        <ele>190</ele>
        <time>2026-08-25T08:00:32+00:00</time>
      </trkpt>
      <trkpt lat="50.25579" lon="4.9194">
        <ele>191</ele>
        <time>2026-08-25T08:00:35+00:00</time>
      </trkpt>
      <trkpt lat="50.25577" lon="4.91939">
        <ele>189</ele>
        <time>2026-08-25T08:00:38+00:00</time>
      </trkpt>
      <trkpt lat="50.2557" lon="4.91933">
        <ele>191</ele>
        <time>2026-08-25T08:00:41+00:00</time>
      </trkpt>
      <trkpt lat="50.25566" lon="4.91933">
        <ele>189</ele>
        <time>2026-08-25T08:00:44+00:00</time>
      </trkpt>
      <trkpt lat="50.25563" lon="4.91935">
        <ele>189</ele>
        <time>2026-08-25T08:00:47+00:00</time>
      </trkpt>
      <trkpt lat="50.25547" lon="4.91939">
        <ele>192</ele>
        <time>2026-08-25T08:00:50+00:00</time>
      </trkpt>
      <trkpt lat="50.25534" lon="4.91961">
        <ele>196</ele>
        <time>2026-08-25T08:00:53+00:00</time>
      </trkpt>
      <trkpt lat="50.2553" lon="4.91965">
        <ele>196</ele>
        <time>2026-08-25T08:00:56+00:00</time>
      </trkpt>
      <trkpt lat="50.25513" lon="4.91975">
        <ele>196</ele>
        <time>2026-08-25T08:00:59+00:00</time>
      </trkpt>
      <trkpt lat="50.25501" lon="4.9198">
        <ele>196</ele>
        <time>2026-08-25T08:01:02+00:00</time>
      </trkpt>
      <trkpt lat="50.2549" lon="4.91986">
        <ele>196</ele>
        <time>2026-08-25T08:01:05+00:00</time>
      </trkpt>
      <trkpt lat="50.25475" lon="4.91987">
        <ele>196</ele>
        <time>2026-08-25T08:01:08+00:00</time>
      </trkpt>
      <trkpt lat="50.25451" lon="4.91994">
        <ele>195</ele>
        <time>2026-08-25T08:01:11+00:00</time>
      </trkpt>
      <trkpt lat="50.25438" lon="4.91995">
        <ele>193</ele>
        <time>2026-08-25T08:01:14+00:00</time>
      </trkpt>
      <trkpt lat="50.2543" lon="4.91998">
        <ele>193</ele>
        <time>2026-08-25T08:01:17+00:00</time>
      </trkpt>
      <trkpt lat="50.25422" lon="4.92002">
        <ele>191</ele>
        <time>2026-08-25T08:01:20+00:00</time>
      </trkpt>
      <trkpt lat="50.25416" lon="4.92002">
        <ele>189</ele>
        <time>2026-08-25T08:01:23+00:00</time>
      </trkpt>
      <trkpt lat="50.25408" lon="4.91997">
        <ele>186</ele>
        <time>2026-08-25T08:01:26+00:00</time>
      </trkpt>
      <trkpt lat="50.25404" lon="4.91998">
        <ele>186</ele>
        <time>2026-08-25T08:01:29+00:00</time>
      </trkpt>
      <trkpt lat="50.25401" lon="4.92">
        <ele>187</ele>
        <time>2026-08-25T08:01:32+00:00</time>
      </trkpt>
      <trkpt lat="50.25396" lon="4.92005">
        <ele>185</ele>
        <time>2026-08-25T08:01:35+00:00</time>
      </trkpt>
      <trkpt lat="50.25388" lon="4.92025">
        <ele>185</ele>
        <time>2026-08-25T08:01:38+00:00</time>
      </trkpt>
      <trkpt lat="50.25385" lon="4.92041">
        <ele>186</ele>
        <time>2026-08-25T08:01:41+00:00</time>
      </trkpt>
      <trkpt lat="50.25382" lon="4.92049">
        <ele>186</ele>
        <time>2026-08-25T08:01:44+00:00</time>
      </trkpt>
      <trkpt lat="50.25374" lon="4.92066">
        <ele>183</ele>
        <time>2026-08-25T08:01:47+00:00</time>
      </trkpt>
      <trkpt lat="50.25373" lon="4.92072">
        <ele>183</ele>
        <time>2026-08-25T08:01:50+00:00</time>
      </trkpt>
      <trkpt lat="50.25375" lon="4.92083">
        <ele>182</ele>
        <time>2026-08-25T08:01:53+00:00</time>
      </trkpt>
      <trkpt lat="50.25373" lon="4.92092">
        <ele>180</ele>
        <time>2026-08-25T08:01:56+00:00</time>
      </trkpt>
      <trkpt lat="50.25373" lon="4.921">
        <ele>180</ele>
        <time>2026-08-25T08:01:59+00:00</time>
      </trkpt>
      <trkpt lat="50.25376" lon="4.92107">
        <ele>180</ele>
        <time>2026-08-25T08:02:02+00:00</time>
      </trkpt>
      <trkpt lat="50.25368" lon="4.92124">
        <ele>179</ele>
        <time>2026-08-25T08:02:05+00:00</time>
      </trkpt>
      <trkpt lat="50.25349" lon="4.92142">
        <ele>179</ele>
        <time>2026-08-25T08:02:08+00:00</time>
      </trkpt>
      <trkpt lat="50.2533" lon="4.92161">
        <ele>180</ele>
        <time>2026-08-25T08:02:11+00:00</time>
      </trkpt>
      <trkpt lat="50.25342" lon="4.92204">
        <ele>186</ele>
        <time>2026-08-25T08:02:14+00:00</time>
      </trkpt>
      <trkpt lat="50.25355" lon="4.92246">
        <ele>193</ele>
        <time>2026-08-25T08:02:17+00:00</time>
      </trkpt>
      <trkpt lat="50.25371" lon="4.92302">
        <ele>195</ele>
        <time>2026-08-25T08:02:20+00:00</time>
      </trkpt>
      <trkpt lat="50.25385" lon="4.9236">
        <ele>196</ele>
        <time>2026-08-25T08:02:23+00:00</time>
      </trkpt>
      <trkpt lat="50.25387" lon="4.92396">
        <ele>197</ele>
        <time>2026-08-25T08:02:26+00:00</time>
      </trkpt>
      <trkpt lat="50.25389" lon="4.9244">
        <ele>199</ele>
        <time>2026-08-25T08:02:29+00:00</time>
      </trkpt>
      <trkpt lat="50.25388" lon="4.92455">
        <ele>199</ele>
        <time>2026-08-25T08:02:32+00:00</time>
      </trkpt>
      <trkpt lat="50.25385" lon="4.92472">
        <ele>201</ele>
        <time>2026-08-25T08:02:35+00:00</time>
      </trkpt>
      <trkpt lat="50.2538" lon="4.92489">
        <ele>202</ele>
        <time>2026-08-25T08:02:38+00:00</time>
      </trkpt>
      <trkpt lat="50.2537" lon="4.92512">
        <ele>205</ele>
        <time>2026-08-25T08:02:41+00:00</time>
      </trkpt>
      <trkpt lat="50.25359" lon="4.9254">
        <ele>206</ele>
        <time>2026-08-25T08:02:44+00:00</time>
      </trkpt>
      <trkpt lat="50.25358" lon="4.92549">
        <ele>206</ele>
        <time>2026-08-25T08:02:47+00:00</time>
      </trkpt>
      <trkpt lat="50.25363" lon="4.92598">
        <ele>213</ele>
        <time>2026-08-25T08:02:50+00:00</time>
      </trkpt>
      <trkpt lat="50.25367" lon="4.92631">
        <ele>215</ele>
        <time>2026-08-25T08:02:53+00:00</time>
      </trkpt>
      <trkpt lat="50.25372" lon="4.92664">
        <ele>217</ele>
        <time>2026-08-25T08:02:56+00:00</time>
      </trkpt>
      <trkpt lat="50.25382" lon="4.92709">
        <ele>219</ele>
        <time>2026-08-25T08:02:59+00:00</time>
      </trkpt>
      <trkpt lat="50.25388" lon="4.92744">
        <ele>220</ele>
        <time>2026-08-25T08:03:02+00:00</time>
      </trkpt>
      <trkpt lat="50.25396" lon="4.92782">
        <ele>222</ele>
        <time>2026-08-25T08:03:05+00:00</time>
      </trkpt>
      <trkpt lat="50.25407" lon="4.92835">
        <ele>223</ele>
        <time>2026-08-25T08:03:08+00:00</time>
      </trkpt>
      <trkpt lat="50.25416" lon="4.92882">
        <ele>224</ele>
        <time>2026-08-25T08:03:11+00:00</time>
      </trkpt>
      <trkpt lat="50.25425" lon="4.92928">
        <ele>225</ele>
        <time>2026-08-25T08:03:14+00:00</time>
      </trkpt>
      <trkpt lat="50.25439" lon="4.93002">
        <ele>226</ele>
        <time>2026-08-25T08:03:17+00:00</time>
      </trkpt>
      <trkpt lat="50.25444" lon="4.93009">
        <ele>226</ele>
        <time>2026-08-25T08:03:20+00:00</time>
      </trkpt>
      <trkpt lat="50.25445" lon="4.93037">
        <ele>226</ele>
        <time>2026-08-25T08:03:23+00:00</time>
      </trkpt>
      <trkpt lat="50.25435" lon="4.93031">
        <ele>227</ele>
        <time>2026-08-25T08:03:26+00:00</time>
      </trkpt>
      <trkpt lat="50.25418" lon="4.93018">
        <ele>228</ele>
        <time>2026-08-25T08:03:29+00:00</time>
      </trkpt>
      <trkpt lat="50.25397" lon="4.93002">
        <ele>229</ele>
        <time>2026-08-25T08:03:32+00:00</time>
      </trkpt>
      <trkpt lat="50.25372" lon="4.92981">
        <ele>229</ele>
        <time>2026-08-25T08:03:35+00:00</time>
      </trkpt>
      <trkpt lat="50.25323" lon="4.92941">
        <ele>231</ele>
        <time>2026-08-25T08:03:38+00:00</time>
      </trkpt>
      <trkpt lat="50.25297" lon="4.92922">
        <ele>232</ele>
        <time>2026-08-25T08:03:41+00:00</time>
      </trkpt>
      <trkpt lat="50.25246" lon="4.92885">
        <ele>235</ele>
        <time>2026-08-25T08:03:44+00:00</time>
      </trkpt>
      <trkpt lat="50.25216" lon="4.92861">
        <ele>237</ele>
        <time>2026-08-25T08:03:47+00:00</time>
      </trkpt>
      <trkpt lat="50.25186" lon="4.92838">
        <ele>238</ele>
        <time>2026-08-25T08:03:50+00:00</time>
      </trkpt>
      <trkpt lat="50.25156" lon="4.92814">
        <ele>238</ele>
        <time>2026-08-25T08:03:53+00:00</time>
      </trkpt>
      <trkpt lat="50.25111" lon="4.92778">
        <ele>239</ele>
        <time>2026-08-25T08:03:56+00:00</time>
      </trkpt>
      <trkpt lat="50.25086" lon="4.92761">
        <ele>239</ele>
        <time>2026-08-25T08:03:59+00:00</time>
      </trkpt>
      <trkpt lat="50.25068" lon="4.9275">
        <ele>239</ele>
        <time>2026-08-25T08:04:02+00:00</time>
      </trkpt>
      <trkpt lat="50.2503" lon="4.92749">
        <ele>237</ele>
        <time>2026-08-25T08:04:05+00:00</time>
      </trkpt>
      <trkpt lat="50.25005" lon="4.92745">
        <ele>234</ele>
        <time>2026-08-25T08:04:08+00:00</time>
      </trkpt>
      <trkpt lat="50.24968" lon="4.92739">
        <ele>230</ele>
        <time>2026-08-25T08:04:11+00:00</time>
      </trkpt>
      <trkpt lat="50.24945" lon="4.92736">
        <ele>227</ele>
        <time>2026-08-25T08:04:14+00:00</time>
      </trkpt>
      <trkpt lat="50.24918" lon="4.92731">
        <ele>224</ele>
        <time>2026-08-25T08:04:17+00:00</time>
      </trkpt>
      <trkpt lat="50.24871" lon="4.92722">
        <ele>220</ele>
        <time>2026-08-25T08:04:20+00:00</time>
      </trkpt>
      <trkpt lat="50.24839" lon="4.92718">
        <ele>217</ele>
        <time>2026-08-25T08:04:23+00:00</time>
      </trkpt>
      <trkpt lat="50.24815" lon="4.92709">
        <ele>215</ele>
        <time>2026-08-25T08:04:26+00:00</time>
      </trkpt>
      <trkpt lat="50.24803" lon="4.92696">
        <ele>213</ele>
        <time>2026-08-25T08:04:29+00:00</time>
      </trkpt>
      <trkpt lat="50.24795" lon="4.92677">
        <ele>211</ele>
        <time>2026-08-25T08:04:32+00:00</time>
      </trkpt>
      <trkpt lat="50.24788" lon="4.92658">
        <ele>210</ele>
        <time>2026-08-25T08:04:35+00:00</time>
      </trkpt>
      <trkpt lat="50.24774" lon="4.92643">
        <ele>209</ele>
        <time>2026-08-25T08:04:38+00:00</time>
      </trkpt>
      <trkpt lat="50.24767" lon="4.92638">
        <ele>208</ele>
        <time>2026-08-25T08:04:41+00:00</time>
      </trkpt>
      <trkpt lat="50.24754" lon="4.92637">
        <ele>207</ele>
        <time>2026-08-25T08:04:44+00:00</time>
      </trkpt>
      <trkpt lat="50.24737" lon="4.92623">
        <ele>206</ele>
        <time>2026-08-25T08:04:47+00:00</time>
      </trkpt>
      <trkpt lat="50.24715" lon="4.92605">
        <ele>205</ele>
        <time>2026-08-25T08:04:50+00:00</time>
      </trkpt>
      <trkpt lat="50.24687" lon="4.92581">
        <ele>204</ele>
        <time>2026-08-25T08:04:53+00:00</time>
      </trkpt>
      <trkpt lat="50.24665" lon="4.92567">
        <ele>204</ele>
        <time>2026-08-25T08:04:56+00:00</time>
      </trkpt>
      <trkpt lat="50.2464" lon="4.9255">
        <ele>202</ele>
        <time>2026-08-25T08:04:59+00:00</time>
      </trkpt>
      <trkpt lat="50.24615" lon="4.92535">
        <ele>202</ele>
        <time>2026-08-25T08:05:02+00:00</time>
      </trkpt>
      <trkpt lat="50.24583" lon="4.92514">
        <ele>205</ele>
        <time>2026-08-25T08:05:05+00:00</time>
      </trkpt>
      <trkpt lat="50.24566" lon="4.92506">
        <ele>216</ele>
        <time>2026-08-25T08:05:08+00:00</time>
      </trkpt>
      <trkpt lat="50.24548" lon="4.925">
        <ele>219</ele>
        <time>2026-08-25T08:05:11+00:00</time>
      </trkpt>
      <trkpt lat="50.24533" lon="4.92508">
        <ele>219</ele>
        <time>2026-08-25T08:05:14+00:00</time>
      </trkpt>
      <trkpt lat="50.24521" lon="4.92504">
        <ele>219</ele>
        <time>2026-08-25T08:05:17+00:00</time>
      </trkpt>
      <trkpt lat="50.24508" lon="4.92497">
        <ele>217</ele>
        <time>2026-08-25T08:05:20+00:00</time>
      </trkpt>
      <trkpt lat="50.2449" lon="4.92466">
        <ele>219</ele>
        <time>2026-08-25T08:05:23+00:00</time>
      </trkpt>
      <trkpt lat="50.24488" lon="4.92469">
        <ele>213</ele>
        <time>2026-08-25T08:05:26+00:00</time>
      </trkpt>
      <trkpt lat="50.24491" lon="4.92479">
        <ele>217</ele>
        <time>2026-08-25T08:05:29+00:00</time>
      </trkpt>
      <trkpt lat="50.24489" lon="4.92485">
        <ele>209</ele>
        <time>2026-08-25T08:05:32+00:00</time>
      </trkpt>
      <trkpt lat="50.24482" lon="4.92477">
        <ele>211</ele>
        <time>2026-08-25T08:05:35+00:00</time>
      </trkpt>
      <trkpt lat="50.24479" lon="4.92484">
        <ele>205</ele>
        <time>2026-08-25T08:05:38+00:00</time>
      </trkpt>
      <trkpt lat="50.24482" lon="4.92503">
        <ele>205</ele>
        <time>2026-08-25T08:05:41+00:00</time>
      </trkpt>
      <trkpt lat="50.2448" lon="4.92506">
        <ele>205</ele>
        <time>2026-08-25T08:05:44+00:00</time>
      </trkpt>
      <trkpt lat="50.24467" lon="4.9249">
        <ele>198</ele>
        <time>2026-08-25T08:05:47+00:00</time>
      </trkpt>
      <trkpt lat="50.24452" lon="4.92476">
        <ele>194</ele>
        <time>2026-08-25T08:05:50+00:00</time>
      </trkpt>
      <trkpt lat="50.24437" lon="4.92455">
        <ele>180</ele>
        <time>2026-08-25T08:05:53+00:00</time>
      </trkpt>
      <trkpt lat="50.24428" lon="4.92415">
        <ele>175</ele>
        <time>2026-08-25T08:05:56+00:00</time>
      </trkpt>
      <trkpt lat="50.24422" lon="4.92443">
        <ele>174</ele>
        <time>2026-08-25T08:05:59+00:00</time>
      </trkpt>
      <trkpt lat="50.24419" lon="4.92414">
        <ele>170</ele>
        <time>2026-08-25T08:06:02+00:00</time>
      </trkpt>
      <trkpt lat="50.2441" lon="4.92435">
        <ele>169</ele>
        <time>2026-08-25T08:06:05+00:00</time>
      </trkpt>
      <trkpt lat="50.24405" lon="4.92398">
        <ele>162</ele>
        <time>2026-08-25T08:06:08+00:00</time>
      </trkpt>
      <trkpt lat="50.244" lon="4.92414">
        <ele>162</ele>
        <time>2026-08-25T08:06:11+00:00</time>
      </trkpt>
      <trkpt lat="50.24396" lon="4.92436">
        <ele>158</ele>
        <time>2026-08-25T08:06:14+00:00</time>
      </trkpt>
      <trkpt lat="50.24395" lon="4.92452">
        <ele>158</ele>
        <time>2026-08-25T08:06:17+00:00</time>
      </trkpt>
      <trkpt lat="50.24396" lon="4.92477">
        <ele>155</ele>
        <time>2026-08-25T08:06:20+00:00</time>
      </trkpt>
      <trkpt lat="50.24393" lon="4.92479">
        <ele>155</ele>
        <time>2026-08-25T08:06:23+00:00</time>
      </trkpt>
      <trkpt lat="50.24386" lon="4.92463">
        <ele>149</ele>
        <time>2026-08-25T08:06:26+00:00</time>
      </trkpt>
      <trkpt lat="50.24381" lon="4.92441">
        <ele>149</ele>
        <time>2026-08-25T08:06:29+00:00</time>
      </trkpt>
      <trkpt lat="50.24372" lon="4.92384">
        <ele>138</ele>
        <time>2026-08-25T08:06:32+00:00</time>
      </trkpt>
      <trkpt lat="50.24369" lon="4.92353">
        <ele>131</ele>
        <time>2026-08-25T08:06:35+00:00</time>
      </trkpt>
      <trkpt lat="50.24364" lon="4.92312">
        <ele>129</ele>
        <time>2026-08-25T08:06:38+00:00</time>
      </trkpt>
      <trkpt lat="50.24363" lon="4.92311">
        <ele>129</ele>
        <time>2026-08-25T08:06:41+00:00</time>
      </trkpt>
      <trkpt lat="50.24358" lon="4.92334">
        <ele>121</ele>
        <time>2026-08-25T08:06:44+00:00</time>
      </trkpt>
      <trkpt lat="50.24352" lon="4.92367">
        <ele>120</ele>
        <time>2026-08-25T08:06:47+00:00</time>
      </trkpt>
      <trkpt lat="50.24347" lon="4.92385">
        <ele>107</ele>
        <time>2026-08-25T08:06:50+00:00</time>
      </trkpt>
      <trkpt lat="50.24344" lon="4.9241">
        <ele>109</ele>
        <time>2026-08-25T08:06:53+00:00</time>
      </trkpt>
      <trkpt lat="50.24341" lon="4.92424">
        <ele>109</ele>
        <time>2026-08-25T08:06:56+00:00</time>
      </trkpt>
      <trkpt lat="50.24339" lon="4.92424">
        <ele>102</ele>
        <time>2026-08-25T08:06:59+00:00</time>
      </trkpt>
      <trkpt lat="50.24336" lon="4.92403">
        <ele>100</ele>
        <time>2026-08-25T08:07:02+00:00</time>
      </trkpt>
      <trkpt lat="50.24332" lon="4.92361">
        <ele>98</ele>
        <time>2026-08-25T08:07:05+00:00</time>
      </trkpt>
      <trkpt lat="50.2433" lon="4.92351">
        <ele>98</ele>
        <time>2026-08-25T08:07:08+00:00</time>
      </trkpt>
      <trkpt lat="50.24329" lon="4.92331">
        <ele>98</ele>
        <time>2026-08-25T08:07:11+00:00</time>
      </trkpt>
      <trkpt lat="50.24323" lon="4.92331">
        <ele>97</ele>
        <time>2026-08-25T08:07:14+00:00</time>
      </trkpt>
      <trkpt lat="50.24324" lon="4.92365">
        <ele>98</ele>
        <time>2026-08-25T08:07:17+00:00</time>
      </trkpt>
      <trkpt lat="50.24325" lon="4.92411">
        <ele>99</ele>
        <time>2026-08-25T08:07:20+00:00</time>
      </trkpt>
      <trkpt lat="50.24325" lon="4.92454">
        <ele>100</ele>
        <time>2026-08-25T08:07:23+00:00</time>
      </trkpt>
      <trkpt lat="50.24324" lon="4.92529">
        <ele>109</ele>
        <time>2026-08-25T08:07:26+00:00</time>
      </trkpt>
      <trkpt lat="50.24324" lon="4.9257">
        <ele>118</ele>
        <time>2026-08-25T08:07:29+00:00</time>
      </trkpt>
      <trkpt lat="50.24325" lon="4.92585">
        <ele>119</ele>
        <time>2026-08-25T08:07:32+00:00</time>
      </trkpt>
      <trkpt lat="50.24328" lon="4.92601">
        <ele>118</ele>
        <time>2026-08-25T08:07:35+00:00</time>
      </trkpt>
      <trkpt lat="50.24332" lon="4.92609">
        <ele>121</ele>
        <time>2026-08-25T08:07:38+00:00</time>
      </trkpt>
      <trkpt lat="50.24349" lon="4.92637">
        <ele>119</ele>
        <time>2026-08-25T08:07:41+00:00</time>
      </trkpt>
      <trkpt lat="50.24376" lon="4.92682">
        <ele>118</ele>
        <time>2026-08-25T08:07:44+00:00</time>
      </trkpt>
      <trkpt lat="50.2439" lon="4.92709">
        <ele>118</ele>
        <time>2026-08-25T08:07:47+00:00</time>
      </trkpt>
      <trkpt lat="50.24405" lon="4.92737">
        <ele>126</ele>
        <time>2026-08-25T08:07:50+00:00</time>
      </trkpt>
      <trkpt lat="50.24399" lon="4.92737">
        <ele>131</ele>
        <time>2026-08-25T08:07:53+00:00</time>
      </trkpt>
      <trkpt lat="50.24379" lon="4.92717">
        <ele>136</ele>
        <time>2026-08-25T08:07:56+00:00</time>
      </trkpt>
      <trkpt lat="50.2435" lon="4.92687">
        <ele>137</ele>
        <time>2026-08-25T08:07:59+00:00</time>
      </trkpt>
      <trkpt lat="50.24331" lon="4.92672">
        <ele>138</ele>
        <time>2026-08-25T08:08:02+00:00</time>
      </trkpt>
      <trkpt lat="50.24311" lon="4.92656">
        <ele>142</ele>
        <time>2026-08-25T08:08:05+00:00</time>
      </trkpt>
      <trkpt lat="50.24283" lon="4.92629">
        <ele>148</ele>
        <time>2026-08-25T08:08:08+00:00</time>
      </trkpt>
      <trkpt lat="50.24262" lon="4.92597">
        <ele>154</ele>
        <time>2026-08-25T08:08:11+00:00</time>
      </trkpt>
      <trkpt lat="50.24248" lon="4.92553">
        <ele>159</ele>
        <time>2026-08-25T08:08:14+00:00</time>
      </trkpt>
      <trkpt lat="50.2424" lon="4.92513">
        <ele>160</ele>
        <time>2026-08-25T08:08:17+00:00</time>
      </trkpt>
      <trkpt lat="50.24227" lon="4.9245">
        <ele>163</ele>
        <time>2026-08-25T08:08:20+00:00</time>
      </trkpt>
      <trkpt lat="50.24218" lon="4.92418">
        <ele>164</ele>
        <time>2026-08-25T08:08:23+00:00</time>
      </trkpt>
      <trkpt lat="50.24208" lon="4.92382">
        <ele>169</ele>
        <time>2026-08-25T08:08:26+00:00</time>
      </trkpt>
      <trkpt lat="50.24193" lon="4.92326">
        <ele>168</ele>
        <time>2026-08-25T08:08:29+00:00</time>
      </trkpt>
      <trkpt lat="50.24173" lon="4.92289">
        <ele>167</ele>
        <time>2026-08-25T08:08:32+00:00</time>
      </trkpt>
      <trkpt lat="50.24161" lon="4.92282">
        <ele>163</ele>
        <time>2026-08-25T08:08:35+00:00</time>
      </trkpt>
      <trkpt lat="50.24154" lon="4.92283">
        <ele>166</ele>
        <time>2026-08-25T08:08:38+00:00</time>
      </trkpt>
      <trkpt lat="50.24146" lon="4.92294">
        <ele>160</ele>
        <time>2026-08-25T08:08:41+00:00</time>
      </trkpt>
      <trkpt lat="50.24154" lon="4.92313">
        <ele>166</ele>
        <time>2026-08-25T08:08:44+00:00</time>
      </trkpt>
      <trkpt lat="50.24168" lon="4.92358">
        <ele>167</ele>
        <time>2026-08-25T08:08:47+00:00</time>
      </trkpt>
      <trkpt lat="50.24173" lon="4.92383">
        <ele>173</ele>
        <time>2026-08-25T08:08:50+00:00</time>
      </trkpt>
      <trkpt lat="50.24174" lon="4.92405">
        <ele>176</ele>
        <time>2026-08-25T08:08:53+00:00</time>
      </trkpt>
      <trkpt lat="50.24175" lon="4.92428">
        <ele>178</ele>
        <time>2026-08-25T08:08:56+00:00</time>
      </trkpt>
      <trkpt lat="50.2418" lon="4.92472">
        <ele>180</ele>
        <time>2026-08-25T08:08:59+00:00</time>
      </trkpt>
      <trkpt lat="50.2418" lon="4.92504">
        <ele>186</ele>
        <time>2026-08-25T08:09:02+00:00</time>
      </trkpt>
      <trkpt lat="50.24182" lon="4.92513">
        <ele>182</ele>
        <time>2026-08-25T08:09:05+00:00</time>
      </trkpt>
      <trkpt lat="50.24187" lon="4.92522">
        <ele>184</ele>
        <time>2026-08-25T08:09:08+00:00</time>
      </trkpt>
      <trkpt lat="50.2419" lon="4.9253">
        <ele>187</ele>
        <time>2026-08-25T08:09:11+00:00</time>
      </trkpt>
      <trkpt lat="50.24195" lon="4.92568">
        <ele>192</ele>
        <time>2026-08-25T08:09:14+00:00</time>
      </trkpt>
      <trkpt lat="50.24196" lon="4.92582">
        <ele>194</ele>
        <time>2026-08-25T08:09:17+00:00</time>
      </trkpt>
      <trkpt lat="50.24196" lon="4.92597">
        <ele>192</ele>
        <time>2026-08-25T08:09:20+00:00</time>
      </trkpt>
      <trkpt lat="50.24189" lon="4.92624">
        <ele>192</ele>
        <time>2026-08-25T08:09:23+00:00</time>
      </trkpt>
      <trkpt lat="50.24181" lon="4.92652">
        <ele>192</ele>
        <time>2026-08-25T08:09:26+00:00</time>
      </trkpt>
      <trkpt lat="50.24175" lon="4.92682">
        <ele>200</ele>
        <time>2026-08-25T08:09:29+00:00</time>
      </trkpt>
      <trkpt lat="50.24176" lon="4.92703">
        <ele>200</ele>
        <time>2026-08-25T08:09:32+00:00</time>
      </trkpt>
      <trkpt lat="50.24186" lon="4.92736">
        <ele>200</ele>
        <time>2026-08-25T08:09:35+00:00</time>
      </trkpt>
      <trkpt lat="50.24189" lon="4.92766">
        <ele>202</ele>
        <time>2026-08-25T08:09:38+00:00</time>
      </trkpt>
      <trkpt lat="50.24198" lon="4.92814">
        <ele>205</ele>
        <time>2026-08-25T08:09:41+00:00</time>
      </trkpt>
      <trkpt lat="50.24181" lon="4.92784">
        <ele>207</ele>
        <time>2026-08-25T08:09:44+00:00</time>
      </trkpt>
      <trkpt lat="50.24156" lon="4.9274">
        <ele>211</ele>
        <time>2026-08-25T08:09:47+00:00</time>
      </trkpt>
      <trkpt lat="50.24152" lon="4.92709">
        <ele>215</ele>
        <time>2026-08-25T08:09:50+00:00</time>
      </trkpt>
      <trkpt lat="50.24146" lon="4.92687">
        <ele>218</ele>
        <time>2026-08-25T08:09:53+00:00</time>
      </trkpt>
      <trkpt lat="50.24135" lon="4.92658">
        <ele>215</ele>
        <time>2026-08-25T08:09:56+00:00</time>
      </trkpt>
      <trkpt lat="50.24117" lon="4.92611">
        <ele>212</ele>
        <time>2026-08-25T08:09:59+00:00</time>
      </trkpt>
      <trkpt lat="50.24111" lon="4.92639">
        <ele>215</ele>
        <time>2026-08-25T08:10:02+00:00</time>
      </trkpt>
      <trkpt lat="50.24108" lon="4.92701">
        <ele>219</ele>
        <time>2026-08-25T08:10:05+00:00</time>
      </trkpt>
      <trkpt lat="50.24105" lon="4.92706">
        <ele>219</ele>
        <time>2026-08-25T08:10:08+00:00</time>
      </trkpt>
      <trkpt lat="50.24103" lon="4.92716">
        <ele>220</ele>
        <time>2026-08-25T08:10:11+00:00</time>
      </trkpt>
      <trkpt lat="50.24099" lon="4.9272">
        <ele>219</ele>
        <time>2026-08-25T08:10:14+00:00</time>
      </trkpt>
      <trkpt lat="50.24092" lon="4.92723">
        <ele>220</ele>
        <time>2026-08-25T08:10:17+00:00</time>
      </trkpt>
      <trkpt lat="50.2409" lon="4.92725">
        <ele>220</ele>
        <time>2026-08-25T08:10:20+00:00</time>
      </trkpt>
      <trkpt lat="50.24089" lon="4.92728">
        <ele>216</ele>
        <time>2026-08-25T08:10:23+00:00</time>
      </trkpt>
      <trkpt lat="50.24093" lon="4.92765">
        <ele>219</ele>
        <time>2026-08-25T08:10:26+00:00</time>
      </trkpt>
      <trkpt lat="50.24092" lon="4.9278">
        <ele>223</ele>
        <time>2026-08-25T08:10:29+00:00</time>
      </trkpt>
      <trkpt lat="50.24089" lon="4.92794">
        <ele>221</ele>
        <time>2026-08-25T08:10:32+00:00</time>
      </trkpt>
      <trkpt lat="50.24092" lon="4.92805">
        <ele>225</ele>
        <time>2026-08-25T08:10:35+00:00</time>
      </trkpt>
      <trkpt lat="50.24092" lon="4.92815">
        <ele>224</ele>
        <time>2026-08-25T08:10:38+00:00</time>
      </trkpt>
      <trkpt lat="50.24091" lon="4.9282">
        <ele>220</ele>
        <time>2026-08-25T08:10:41+00:00</time>
      </trkpt>
      <trkpt lat="50.24085" lon="4.92823">
        <ele>221</ele>
        <time>2026-08-25T08:10:44+00:00</time>
      </trkpt>
      <trkpt lat="50.24072" lon="4.92824">
        <ele>219</ele>
        <time>2026-08-25T08:10:47+00:00</time>
      </trkpt>
      <trkpt lat="50.24044" lon="4.92814">
        <ele>218</ele>
        <time>2026-08-25T08:10:50+00:00</time>
      </trkpt>
      <trkpt lat="50.24039" lon="4.92818">
        <ele>217</ele>
        <time>2026-08-25T08:10:53+00:00</time>
      </trkpt>
      <trkpt lat="50.24037" lon="4.92825">
        <ele>217</ele>
        <time>2026-08-25T08:10:56+00:00</time>
      </trkpt>
      <trkpt lat="50.24011" lon="4.92848">
        <ele>217</ele>
        <time>2026-08-25T08:10:59+00:00</time>
      </trkpt>
      <trkpt lat="50.2399" lon="4.92884">
        <ele>217</ele>
        <time>2026-08-25T08:11:02+00:00</time>
      </trkpt>
      <trkpt lat="50.23971" lon="4.9291">
        <ele>215</ele>
        <time>2026-08-25T08:11:05+00:00</time>
      </trkpt>
      <trkpt lat="50.23963" lon="4.92949">
        <ele>214</ele>
        <time>2026-08-25T08:11:08+00:00</time>
      </trkpt>
      <trkpt lat="50.2396" lon="4.92985">
        <ele>212</ele>
        <time>2026-08-25T08:11:11+00:00</time>
      </trkpt>
      <trkpt lat="50.23966" lon="4.93037">
        <ele>211</ele>
        <time>2026-08-25T08:11:14+00:00</time>
      </trkpt>
      <trkpt lat="50.23948" lon="4.93088">
        <ele>210</ele>
        <time>2026-08-25T08:11:17+00:00</time>
      </trkpt>
      <trkpt lat="50.23929" lon="4.9309">
        <ele>209</ele>
        <time>2026-08-25T08:11:20+00:00</time>
      </trkpt>
      <trkpt lat="50.23919" lon="4.93043">
        <ele>206</ele>
        <time>2026-08-25T08:11:23+00:00</time>
      </trkpt>
      <trkpt lat="50.23925" lon="4.92991">
        <ele>205</ele>
        <time>2026-08-25T08:11:26+00:00</time>
      </trkpt>
      <trkpt lat="50.2393" lon="4.9294">
        <ele>202</ele>
        <time>2026-08-25T08:11:29+00:00</time>
      </trkpt>
      <trkpt lat="50.23936" lon="4.92888">
        <ele>200</ele>
        <time>2026-08-25T08:11:32+00:00</time>
      </trkpt>
      <trkpt lat="50.23944" lon="4.92811">
        <ele>192</ele>
        <time>2026-08-25T08:11:35+00:00</time>
      </trkpt>
      <trkpt lat="50.23939" lon="4.92776">
        <ele>191</ele>
        <time>2026-08-25T08:11:38+00:00</time>
      </trkpt>
      <trkpt lat="50.23933" lon="4.92734">
        <ele>189</ele>
        <time>2026-08-25T08:11:41+00:00</time>
      </trkpt>
      <trkpt lat="50.23937" lon="4.92694">
        <ele>186</ele>
        <time>2026-08-25T08:11:44+00:00</time>
      </trkpt>
      <trkpt lat="50.23944" lon="4.92634">
        <ele>184</ele>
        <time>2026-08-25T08:11:47+00:00</time>
      </trkpt>
      <trkpt lat="50.23951" lon="4.92604">
        <ele>183</ele>
        <time>2026-08-25T08:11:50+00:00</time>
      </trkpt>
      <trkpt lat="50.2396" lon="4.92582">
        <ele>182</ele>
        <time>2026-08-25T08:11:53+00:00</time>
      </trkpt>
      <trkpt lat="50.23965" lon="4.92567">
        <ele>181</ele>
        <time>2026-08-25T08:11:56+00:00</time>
      </trkpt>
      <trkpt lat="50.23968" lon="4.92527">
        <ele>176</ele>
        <time>2026-08-25T08:11:59+00:00</time>
      </trkpt>
      <trkpt lat="50.23978" lon="4.92485">
        <ele>175</ele>
        <time>2026-08-25T08:12:02+00:00</time>
      </trkpt>
      <trkpt lat="50.23987" lon="4.92454">
        <ele>174</ele>
        <time>2026-08-25T08:12:05+00:00</time>
      </trkpt>
      <trkpt lat="50.23996" lon="4.92442">
        <ele>174</ele>
        <time>2026-08-25T08:12:08+00:00</time>
      </trkpt>
      <trkpt lat="50.24018" lon="4.92426">
        <ele>170</ele>
        <time>2026-08-25T08:12:11+00:00</time>
      </trkpt>
      <trkpt lat="50.24025" lon="4.92419">
        <ele>167</ele>
        <time>2026-08-25T08:12:14+00:00</time>
      </trkpt>
      <trkpt lat="50.24041" lon="4.92396">
        <ele>164</ele>
        <time>2026-08-25T08:12:17+00:00</time>
      </trkpt>
      <trkpt lat="50.24049" lon="4.92376">
        <ele>165</ele>
        <time>2026-08-25T08:12:20+00:00</time>
      </trkpt>
      <trkpt lat="50.24053" lon="4.92359">
        <ele>165</ele>
        <time>2026-08-25T08:12:23+00:00</time>
      </trkpt>
      <trkpt lat="50.24046" lon="4.92324">
        <ele>165</ele>
        <time>2026-08-25T08:12:26+00:00</time>
      </trkpt>
      <trkpt lat="50.24044" lon="4.92281">
        <ele>165</ele>
        <time>2026-08-25T08:12:29+00:00</time>
      </trkpt>
      <trkpt lat="50.2404" lon="4.92261">
        <ele>165</ele>
        <time>2026-08-25T08:12:32+00:00</time>
      </trkpt>
      <trkpt lat="50.24024" lon="4.92248">
        <ele>165</ele>
        <time>2026-08-25T08:12:35+00:00</time>
      </trkpt>
      <trkpt lat="50.24005" lon="4.92233">
        <ele>164</ele>
        <time>2026-08-25T08:12:38+00:00</time>
      </trkpt>
      <trkpt lat="50.23991" lon="4.92245">
        <ele>165</ele>
        <time>2026-08-25T08:12:41+00:00</time>
      </trkpt>
      <trkpt lat="50.23981" lon="4.9227">
        <ele>166</ele>
        <time>2026-08-25T08:12:44+00:00</time>
      </trkpt>
      <trkpt lat="50.23966" lon="4.92307">
        <ele>165</ele>
        <time>2026-08-25T08:12:47+00:00</time>
      </trkpt>
      <trkpt lat="50.23955" lon="4.9234">
        <ele>165</ele>
        <time>2026-08-25T08:12:50+00:00</time>
      </trkpt>
      <trkpt lat="50.23942" lon="4.92382">
        <ele>165</ele>
        <time>2026-08-25T08:12:53+00:00</time>
      </trkpt>
      <trkpt lat="50.23929" lon="4.92433">
        <ele>183</ele>
        <time>2026-08-25T08:12:56+00:00</time>
      </trkpt>
      <trkpt lat="50.23922" lon="4.92472">
        <ele>184</ele>
        <time>2026-08-25T08:12:59+00:00</time>
      </trkpt>
      <trkpt lat="50.23913" lon="4.92528">
        <ele>183</ele>
        <time>2026-08-25T08:13:02+00:00</time>
      </trkpt>
      <trkpt lat="50.23904" lon="4.92566">
        <ele>182</ele>
        <time>2026-08-25T08:13:05+00:00</time>
      </trkpt>
      <trkpt lat="50.2389" lon="4.92623">
        <ele>183</ele>
        <time>2026-08-25T08:13:08+00:00</time>
      </trkpt>
      <trkpt lat="50.23879" lon="4.92658">
        <ele>184</ele>
        <time>2026-08-25T08:13:11+00:00</time>
      </trkpt>
      <trkpt lat="50.23875" lon="4.92677">
        <ele>185</ele>
        <time>2026-08-25T08:13:14+00:00</time>
      </trkpt>
      <trkpt lat="50.23865" lon="4.92718">
        <ele>188</ele>
        <time>2026-08-25T08:13:17+00:00</time>
      </trkpt>
      <trkpt lat="50.23855" lon="4.92759">
        <ele>193</ele>
        <time>2026-08-25T08:13:20+00:00</time>
      </trkpt>
      <trkpt lat="50.23838" lon="4.9283">
        <ele>198</ele>
        <time>2026-08-25T08:13:23+00:00</time>
      </trkpt>
      <trkpt lat="50.23834" lon="4.92874">
        <ele>199</ele>
        <time>2026-08-25T08:13:26+00:00</time>
      </trkpt>
      <trkpt lat="50.2383" lon="4.92904">
        <ele>201</ele>
        <time>2026-08-25T08:13:29+00:00</time>
      </trkpt>
      <trkpt lat="50.23825" lon="4.92921">
        <ele>202</ele>
        <time>2026-08-25T08:13:32+00:00</time>
      </trkpt>
      <trkpt lat="50.23815" lon="4.92946">
        <ele>203</ele>
        <time>2026-08-25T08:13:35+00:00</time>
      </trkpt>
      <trkpt lat="50.2381" lon="4.92962">
        <ele>205</ele>
        <time>2026-08-25T08:13:38+00:00</time>
      </trkpt>
      <trkpt lat="50.23801" lon="4.92996">
        <ele>207</ele>
        <time>2026-08-25T08:13:41+00:00</time>
      </trkpt>
      <trkpt lat="50.23786" lon="4.93054">
        <ele>213</ele>
        <time>2026-08-25T08:13:44+00:00</time>
      </trkpt>
      <trkpt lat="50.23775" lon="4.93086">
        <ele>215</ele>
        <time>2026-08-25T08:13:47+00:00</time>
      </trkpt>
      <trkpt lat="50.23766" lon="4.93129">
        <ele>217</ele>
        <time>2026-08-25T08:13:50+00:00</time>
      </trkpt>
      <trkpt lat="50.23759" lon="4.93156">
        <ele>219</ele>
        <time>2026-08-25T08:13:53+00:00</time>
      </trkpt>
      <trkpt lat="50.23747" lon="4.93187">
        <ele>221</ele>
        <time>2026-08-25T08:13:56+00:00</time>
      </trkpt>
      <trkpt lat="50.23736" lon="4.93209">
        <ele>223</ele>
        <time>2026-08-25T08:13:59+00:00</time>
      </trkpt>
      <trkpt lat="50.23713" lon="4.93247">
        <ele>226</ele>
        <time>2026-08-25T08:14:02+00:00</time>
      </trkpt>
      <trkpt lat="50.23698" lon="4.93276">
        <ele>230</ele>
        <time>2026-08-25T08:14:05+00:00</time>
      </trkpt>
      <trkpt lat="50.2368" lon="4.93311">
        <ele>234</ele>
        <time>2026-08-25T08:14:08+00:00</time>
      </trkpt>
      <trkpt lat="50.23659" lon="4.93348">
        <ele>237</ele>
        <time>2026-08-25T08:14:11+00:00</time>
      </trkpt>
      <trkpt lat="50.23643" lon="4.9337">
        <ele>240</ele>
        <time>2026-08-25T08:14:14+00:00</time>
      </trkpt>
      <trkpt lat="50.23608" lon="4.93392">
        <ele>242</ele>
        <time>2026-08-25T08:14:17+00:00</time>
      </trkpt>
      <trkpt lat="50.23593" lon="4.93408">
        <ele>243</ele>
        <time>2026-08-25T08:14:20+00:00</time>
      </trkpt>
      <trkpt lat="50.23599" lon="4.93437">
        <ele>244</ele>
        <time>2026-08-25T08:14:23+00:00</time>
      </trkpt>
      <trkpt lat="50.23604" lon="4.93471">
        <ele>245</ele>
        <time>2026-08-25T08:14:26+00:00</time>
      </trkpt>
      <trkpt lat="50.23609" lon="4.93507">
        <ele>246</ele>
        <time>2026-08-25T08:14:29+00:00</time>
      </trkpt>
      <trkpt lat="50.23613" lon="4.93553">
        <ele>247</ele>
        <time>2026-08-25T08:14:32+00:00</time>
      </trkpt>
      <trkpt lat="50.23617" lon="4.936">
        <ele>248</ele>
        <time>2026-08-25T08:14:35+00:00</time>
      </trkpt>
      <trkpt lat="50.23623" lon="4.93659">
        <ele>248</ele>
        <time>2026-08-25T08:14:38+00:00</time>
      </trkpt>
      <trkpt lat="50.23628" lon="4.93708">
        <ele>251</ele>
        <time>2026-08-25T08:14:41+00:00</time>
      </trkpt>
      <trkpt lat="50.23643" lon="4.93768">
        <ele>252</ele>
        <time>2026-08-25T08:14:44+00:00</time>
      </trkpt>
      <trkpt lat="50.23643" lon="4.93771">
        <ele>252</ele>
        <time>2026-08-25T08:14:47+00:00</time>
      </trkpt>
      <trkpt lat="50.23627" lon="4.93785">
        <ele>252</ele>
        <time>2026-08-25T08:14:50+00:00</time>
      </trkpt>
      <trkpt lat="50.23603" lon="4.93808">
        <ele>250</ele>
        <time>2026-08-25T08:14:53+00:00</time>
      </trkpt>
      <trkpt lat="50.23578" lon="4.9382">
        <ele>248</ele>
        <time>2026-08-25T08:14:56+00:00</time>
      </trkpt>
      <trkpt lat="50.23537" lon="4.93838">
        <ele>246</ele>
        <time>2026-08-25T08:14:59+00:00</time>
      </trkpt>
      <trkpt lat="50.23535" lon="4.93838">
        <ele>246</ele>
        <time>2026-08-25T08:15:02+00:00</time>
      </trkpt>
      <trkpt lat="50.23536" lon="4.93827">
        <ele>246</ele>
        <time>2026-08-25T08:15:05+00:00</time>
      </trkpt>
      <trkpt lat="50.23517" lon="4.9382">
        <ele>244</ele>
        <time>2026-08-25T08:15:08+00:00</time>
      </trkpt>
      <trkpt lat="50.23493" lon="4.93812">
        <ele>243</ele>
        <time>2026-08-25T08:15:11+00:00</time>
      </trkpt>
      <trkpt lat="50.23476" lon="4.93808">
        <ele>241</ele>
        <time>2026-08-25T08:15:14+00:00</time>
      </trkpt>
      <trkpt lat="50.23477" lon="4.93768">
        <ele>239</ele>
        <time>2026-08-25T08:15:17+00:00</time>
      </trkpt>
      <trkpt lat="50.23451" lon="4.93766">
        <ele>238</ele>
        <time>2026-08-25T08:15:20+00:00</time>
      </trkpt>
      <trkpt lat="50.2341" lon="4.93763">
        <ele>236</ele>
        <time>2026-08-25T08:15:23+00:00</time>
      </trkpt>
      <trkpt lat="50.23382" lon="4.93756">
        <ele>234</ele>
        <time>2026-08-25T08:15:26+00:00</time>
      </trkpt>
      <trkpt lat="50.23382" lon="4.93735">
        <ele>233</ele>
        <time>2026-08-25T08:15:29+00:00</time>
      </trkpt>
      <trkpt lat="50.23378" lon="4.93728">
        <ele>232</ele>
        <time>2026-08-25T08:15:32+00:00</time>
      </trkpt>
      <trkpt lat="50.23371" lon="4.93728">
        <ele>232</ele>
        <time>2026-08-25T08:15:35+00:00</time>
      </trkpt>
      <trkpt lat="50.2334" lon="4.93723">
        <ele>231</ele>
        <time>2026-08-25T08:15:38+00:00</time>
      </trkpt>
      <trkpt lat="50.23309" lon="4.93717">
        <ele>229</ele>
        <time>2026-08-25T08:15:41+00:00</time>
      </trkpt>
      <trkpt lat="50.23278" lon="4.93712">
        <ele>226</ele>
        <time>2026-08-25T08:15:44+00:00</time>
      </trkpt>
      <trkpt lat="50.23243" lon="4.93706">
        <ele>224</ele>
        <time>2026-08-25T08:15:47+00:00</time>
      </trkpt>
      <trkpt lat="50.23216" lon="4.93757">
        <ele>224</ele>
        <time>2026-08-25T08:15:50+00:00</time>
      </trkpt>
      <trkpt lat="50.23195" lon="4.93793">
        <ele>224</ele>
        <time>2026-08-25T08:15:53+00:00</time>
      </trkpt>
      <trkpt lat="50.23174" lon="4.9383">
        <ele>223</ele>
        <time>2026-08-25T08:15:56+00:00</time>
      </trkpt>
      <trkpt lat="50.23137" lon="4.93893">
        <ele>222</ele>
        <time>2026-08-25T08:15:59+00:00</time>
      </trkpt>
      <trkpt lat="50.23114" lon="4.9393">
        <ele>220</ele>
        <time>2026-08-25T08:16:02+00:00</time>
      </trkpt>
      <trkpt lat="50.23098" lon="4.93959">
        <ele>219</ele>
        <time>2026-08-25T08:16:05+00:00</time>
      </trkpt>
      <trkpt lat="50.23092" lon="4.93988">
        <ele>218</ele>
        <time>2026-08-25T08:16:08+00:00</time>
      </trkpt>
      <trkpt lat="50.23092" lon="4.94005">
        <ele>217</ele>
        <time>2026-08-25T08:16:11+00:00</time>
      </trkpt>
      <trkpt lat="50.23096" lon="4.94041">
        <ele>217</ele>
        <time>2026-08-25T08:16:14+00:00</time>
      </trkpt>
      <trkpt lat="50.23096" lon="4.94053">
        <ele>215</ele>
        <time>2026-08-25T08:16:17+00:00</time>
      </trkpt>
      <trkpt lat="50.23093" lon="4.94067">
        <ele>216</ele>
        <time>2026-08-25T08:16:20+00:00</time>
      </trkpt>
      <trkpt lat="50.2309" lon="4.94078">
        <ele>217</ele>
        <time>2026-08-25T08:16:23+00:00</time>
      </trkpt>
      <trkpt lat="50.2308" lon="4.94099">
        <ele>216</ele>
        <time>2026-08-25T08:16:26+00:00</time>
      </trkpt>
      <trkpt lat="50.23058" lon="4.94134">
        <ele>217</ele>
        <time>2026-08-25T08:16:29+00:00</time>
      </trkpt>
      <trkpt lat="50.23036" lon="4.9417">
        <ele>218</ele>
        <time>2026-08-25T08:16:32+00:00</time>
      </trkpt>
      <trkpt lat="50.23014" lon="4.94205">
        <ele>219</ele>
        <time>2026-08-25T08:16:35+00:00</time>
      </trkpt>
      <trkpt lat="50.22992" lon="4.9424">
        <ele>220</ele>
        <time>2026-08-25T08:16:38+00:00</time>
      </trkpt>
      <trkpt lat="50.22967" lon="4.94281">
        <ele>223</ele>
        <time>2026-08-25T08:16:41+00:00</time>
      </trkpt>
      <trkpt lat="50.22949" lon="4.94306">
        <ele>226</ele>
        <time>2026-08-25T08:16:44+00:00</time>
      </trkpt>
      <trkpt lat="50.22924" lon="4.94333">
        <ele>228</ele>
        <time>2026-08-25T08:16:47+00:00</time>
      </trkpt>
      <trkpt lat="50.22898" lon="4.9436">
        <ele>229</ele>
        <time>2026-08-25T08:16:50+00:00</time>
      </trkpt>
      <trkpt lat="50.2286" lon="4.94401">
        <ele>231</ele>
        <time>2026-08-25T08:16:53+00:00</time>
      </trkpt>
      <trkpt lat="50.22852" lon="4.94411">
        <ele>231</ele>
        <time>2026-08-25T08:16:56+00:00</time>
      </trkpt>
      <trkpt lat="50.2284" lon="4.94431">
        <ele>231</ele>
        <time>2026-08-25T08:16:59+00:00</time>
      </trkpt>
      <trkpt lat="50.22832" lon="4.94447">
        <ele>231</ele>
        <time>2026-08-25T08:17:02+00:00</time>
      </trkpt>
      <trkpt lat="50.22811" lon="4.94454">
        <ele>231</ele>
        <time>2026-08-25T08:17:05+00:00</time>
      </trkpt>
      <trkpt lat="50.22778" lon="4.94465">
        <ele>230</ele>
        <time>2026-08-25T08:17:08+00:00</time>
      </trkpt>
      <trkpt lat="50.22755" lon="4.94468">
        <ele>228</ele>
        <time>2026-08-25T08:17:11+00:00</time>
      </trkpt>
      <trkpt lat="50.2273" lon="4.94476">
        <ele>226</ele>
        <time>2026-08-25T08:17:14+00:00</time>
      </trkpt>
      <trkpt lat="50.22695" lon="4.94488">
        <ele>222</ele>
        <time>2026-08-25T08:17:17+00:00</time>
      </trkpt>
      <trkpt lat="50.22672" lon="4.94502">
        <ele>220</ele>
        <time>2026-08-25T08:17:20+00:00</time>
      </trkpt>
      <trkpt lat="50.22648" lon="4.94499">
        <ele>217</ele>
        <time>2026-08-25T08:17:23+00:00</time>
      </trkpt>
      <trkpt lat="50.2262" lon="4.94495">
        <ele>214</ele>
        <time>2026-08-25T08:17:26+00:00</time>
      </trkpt>
      <trkpt lat="50.22594" lon="4.94497">
        <ele>210</ele>
        <time>2026-08-25T08:17:29+00:00</time>
      </trkpt>
      <trkpt lat="50.22555" lon="4.945">
        <ele>203</ele>
        <time>2026-08-25T08:17:32+00:00</time>
      </trkpt>
      <trkpt lat="50.22524" lon="4.94501">
        <ele>200</ele>
        <time>2026-08-25T08:17:35+00:00</time>
      </trkpt>
      <trkpt lat="50.22492" lon="4.94502">
        <ele>197</ele>
        <time>2026-08-25T08:17:38+00:00</time>
      </trkpt>
      <trkpt lat="50.22439" lon="4.94504">
        <ele>194</ele>
        <time>2026-08-25T08:17:41+00:00</time>
      </trkpt>
      <trkpt lat="50.22412" lon="4.94505">
        <ele>197</ele>
        <time>2026-08-25T08:17:44+00:00</time>
      </trkpt>
      <trkpt lat="50.22367" lon="4.94508">
        <ele>201</ele>
        <time>2026-08-25T08:17:47+00:00</time>
      </trkpt>
      <trkpt lat="50.22349" lon="4.94505">
        <ele>202</ele>
        <time>2026-08-25T08:17:50+00:00</time>
      </trkpt>
      <trkpt lat="50.22316" lon="4.94487">
        <ele>207</ele>
        <time>2026-08-25T08:17:53+00:00</time>
      </trkpt>
      <trkpt lat="50.22288" lon="4.94474">
        <ele>211</ele>
        <time>2026-08-25T08:17:56+00:00</time>
      </trkpt>
      <trkpt lat="50.22283" lon="4.94476">
        <ele>211</ele>
        <time>2026-08-25T08:17:59+00:00</time>
      </trkpt>
      <trkpt lat="50.22262" lon="4.94469">
        <ele>211</ele>
        <time>2026-08-25T08:18:02+00:00</time>
      </trkpt>
      <trkpt lat="50.2224" lon="4.94454">
        <ele>211</ele>
        <time>2026-08-25T08:18:05+00:00</time>
      </trkpt>
      <trkpt lat="50.22211" lon="4.94449">
        <ele>209</ele>
        <time>2026-08-25T08:18:08+00:00</time>
      </trkpt>
      <trkpt lat="50.22183" lon="4.94437">
        <ele>203</ele>
        <time>2026-08-25T08:18:11+00:00</time>
      </trkpt>
      <trkpt lat="50.22162" lon="4.94438">
        <ele>200</ele>
        <time>2026-08-25T08:18:14+00:00</time>
      </trkpt>
      <trkpt lat="50.22123" lon="4.9441">
        <ele>198</ele>
        <time>2026-08-25T08:18:17+00:00</time>
      </trkpt>
      <trkpt lat="50.2211" lon="4.94403">
        <ele>199</ele>
        <time>2026-08-25T08:18:20+00:00</time>
      </trkpt>
      <trkpt lat="50.22098" lon="4.94411">
        <ele>200</ele>
        <time>2026-08-25T08:18:23+00:00</time>
      </trkpt>
      <trkpt lat="50.22088" lon="4.94369">
        <ele>200</ele>
        <time>2026-08-25T08:18:26+00:00</time>
      </trkpt>
      <trkpt lat="50.22078" lon="4.94326">
        <ele>200</ele>
        <time>2026-08-25T08:18:29+00:00</time>
      </trkpt>
      <trkpt lat="50.22067" lon="4.94281">
        <ele>200</ele>
        <time>2026-08-25T08:18:32+00:00</time>
      </trkpt>
      <trkpt lat="50.22052" lon="4.94244">
        <ele>199</ele>
        <time>2026-08-25T08:18:35+00:00</time>
      </trkpt>
      <trkpt lat="50.22022" lon="4.94218">
        <ele>197</ele>
        <time>2026-08-25T08:18:38+00:00</time>
      </trkpt>
      <trkpt lat="50.21998" lon="4.942">
        <ele>194</ele>
        <time>2026-08-25T08:18:41+00:00</time>
      </trkpt>
      <trkpt lat="50.21959" lon="4.94171">
        <ele>185</ele>
        <time>2026-08-25T08:18:44+00:00</time>
      </trkpt>
      <trkpt lat="50.21942" lon="4.9415">
        <ele>185</ele>
        <time>2026-08-25T08:18:47+00:00</time>
      </trkpt>
      <trkpt lat="50.21925" lon="4.94128">
        <ele>183</ele>
        <time>2026-08-25T08:18:50+00:00</time>
      </trkpt>
      <trkpt lat="50.21907" lon="4.94107">
        <ele>180</ele>
        <time>2026-08-25T08:18:53+00:00</time>
      </trkpt>
      <trkpt lat="50.21889" lon="4.94086">
        <ele>175</ele>
        <time>2026-08-25T08:18:56+00:00</time>
      </trkpt>
      <trkpt lat="50.21863" lon="4.94045">
        <ele>172</ele>
        <time>2026-08-25T08:18:59+00:00</time>
      </trkpt>
      <trkpt lat="50.21842" lon="4.94">
        <ele>172</ele>
        <time>2026-08-25T08:19:02+00:00</time>
      </trkpt>
      <trkpt lat="50.21831" lon="4.93951">
        <ele>172</ele>
        <time>2026-08-25T08:19:05+00:00</time>
      </trkpt>
      <trkpt lat="50.21828" lon="4.93887">
        <ele>173</ele>
        <time>2026-08-25T08:19:08+00:00</time>
      </trkpt>
      <trkpt lat="50.21824" lon="4.93857">
        <ele>173</ele>
        <time>2026-08-25T08:19:11+00:00</time>
      </trkpt>
      <trkpt lat="50.21815" lon="4.93822">
        <ele>173</ele>
        <time>2026-08-25T08:19:14+00:00</time>
      </trkpt>
      <trkpt lat="50.21802" lon="4.93775">
        <ele>172</ele>
        <time>2026-08-25T08:19:17+00:00</time>
      </trkpt>
      <trkpt lat="50.21789" lon="4.93747">
        <ele>171</ele>
        <time>2026-08-25T08:19:20+00:00</time>
      </trkpt>
      <trkpt lat="50.21771" lon="4.93722">
        <ele>170</ele>
        <time>2026-08-25T08:19:23+00:00</time>
      </trkpt>
      <trkpt lat="50.2175" lon="4.93692">
        <ele>165</ele>
        <time>2026-08-25T08:19:26+00:00</time>
      </trkpt>
      <trkpt lat="50.21736" lon="4.93665">
        <ele>161</ele>
        <time>2026-08-25T08:19:29+00:00</time>
      </trkpt>
      <trkpt lat="50.21722" lon="4.93636">
        <ele>157</ele>
        <time>2026-08-25T08:19:32+00:00</time>
      </trkpt>
      <trkpt lat="50.21709" lon="4.93573">
        <ele>147</ele>
        <time>2026-08-25T08:19:35+00:00</time>
      </trkpt>
      <trkpt lat="50.21705" lon="4.93528">
        <ele>141</ele>
        <time>2026-08-25T08:19:38+00:00</time>
      </trkpt>
      <trkpt lat="50.21704" lon="4.93504">
        <ele>138</ele>
        <time>2026-08-25T08:19:41+00:00</time>
      </trkpt>
      <trkpt lat="50.21706" lon="4.9348">
        <ele>136</ele>
        <time>2026-08-25T08:19:44+00:00</time>
      </trkpt>
      <trkpt lat="50.21709" lon="4.9346">
        <ele>135</ele>
        <time>2026-08-25T08:19:47+00:00</time>
      </trkpt>
      <trkpt lat="50.21715" lon="4.93439">
        <ele>132</ele>
        <time>2026-08-25T08:19:50+00:00</time>
      </trkpt>
      <trkpt lat="50.21737" lon="4.9339">
        <ele>131</ele>
        <time>2026-08-25T08:19:53+00:00</time>
      </trkpt>
      <trkpt lat="50.21747" lon="4.93347">
        <ele>125</ele>
        <time>2026-08-25T08:19:56+00:00</time>
      </trkpt>
      <trkpt lat="50.2175" lon="4.93313">
        <ele>120</ele>
        <time>2026-08-25T08:19:59+00:00</time>
      </trkpt>
      <trkpt lat="50.21749" lon="4.93286">
        <ele>117</ele>
        <time>2026-08-25T08:20:02+00:00</time>
      </trkpt>
      <trkpt lat="50.21746" lon="4.93275">
        <ele>116</ele>
        <time>2026-08-25T08:20:05+00:00</time>
      </trkpt>
      <trkpt lat="50.21742" lon="4.93263">
        <ele>115</ele>
        <time>2026-08-25T08:20:08+00:00</time>
      </trkpt>
      <trkpt lat="50.21735" lon="4.93247">
        <ele>112</ele>
        <time>2026-08-25T08:20:11+00:00</time>
      </trkpt>
      <trkpt lat="50.21726" lon="4.93243">
        <ele>112</ele>
        <time>2026-08-25T08:20:14+00:00</time>
      </trkpt>
      <trkpt lat="50.21713" lon="4.9325">
        <ele>111</ele>
        <time>2026-08-25T08:20:17+00:00</time>
      </trkpt>
      <trkpt lat="50.21707" lon="4.93257">
        <ele>111</ele>
        <time>2026-08-25T08:20:20+00:00</time>
      </trkpt>
      <trkpt lat="50.21686" lon="4.93277">
        <ele>108</ele>
        <time>2026-08-25T08:20:23+00:00</time>
      </trkpt>
      <trkpt lat="50.21673" lon="4.93284">
        <ele>106</ele>
        <time>2026-08-25T08:20:26+00:00</time>
      </trkpt>
      <trkpt lat="50.21653" lon="4.93283">
        <ele>108</ele>
        <time>2026-08-25T08:20:29+00:00</time>
      </trkpt>
      <trkpt lat="50.21625" lon="4.93281">
        <ele>108</ele>
        <time>2026-08-25T08:20:32+00:00</time>
      </trkpt>
      <trkpt lat="50.21621" lon="4.93303">
        <ele>108</ele>
        <time>2026-08-25T08:20:35+00:00</time>
      </trkpt>
      <trkpt lat="50.21623" lon="4.9331">
        <ele>108</ele>
        <time>2026-08-25T08:20:38+00:00</time>
      </trkpt>
      <trkpt lat="50.21629" lon="4.93306">
        <ele>108</ele>
        <time>2026-08-25T08:20:41+00:00</time>
      </trkpt>
      <trkpt lat="50.21634" lon="4.933">
        <ele>109</ele>
        <time>2026-08-25T08:20:44+00:00</time>
      </trkpt>
      <trkpt lat="50.21638" lon="4.9329">
        <ele>109</ele>
        <time>2026-08-25T08:20:47+00:00</time>
      </trkpt>
      <trkpt lat="50.21649" lon="4.93253">
        <ele>109</ele>
        <time>2026-08-25T08:20:50+00:00</time>
      </trkpt>
      <trkpt lat="50.21665" lon="4.93195">
        <ele>112</ele>
        <time>2026-08-25T08:20:53+00:00</time>
      </trkpt>
      <trkpt lat="50.21668" lon="4.93176">
        <ele>118</ele>
        <time>2026-08-25T08:20:56+00:00</time>
      </trkpt>
      <trkpt lat="50.21667" lon="4.9317">
        <ele>118</ele>
        <time>2026-08-25T08:20:59+00:00</time>
      </trkpt>
      <trkpt lat="50.21665" lon="4.9317">
        <ele>118</ele>
        <time>2026-08-25T08:21:02+00:00</time>
      </trkpt>
      <trkpt lat="50.21651" lon="4.93189">
        <ele>115</ele>
        <time>2026-08-25T08:21:05+00:00</time>
      </trkpt>
      <trkpt lat="50.21659" lon="4.93203">
        <ele>116</ele>
        <time>2026-08-25T08:21:08+00:00</time>
      </trkpt>
      <trkpt lat="50.21656" lon="4.93214">
        <ele>112</ele>
        <time>2026-08-25T08:21:11+00:00</time>
      </trkpt>
      <trkpt lat="50.21672" lon="4.93208">
        <ele>107</ele>
        <time>2026-08-25T08:21:14+00:00</time>
      </trkpt>
      <trkpt lat="50.21687" lon="4.93198">
        <ele>109</ele>
        <time>2026-08-25T08:21:17+00:00</time>
      </trkpt>
      <trkpt lat="50.21698" lon="4.93174">
        <ele>107</ele>
        <time>2026-08-25T08:21:20+00:00</time>
      </trkpt>
      <trkpt lat="50.21711" lon="4.93121">
        <ele>105</ele>
        <time>2026-08-25T08:21:23+00:00</time>
      </trkpt>
      <trkpt lat="50.21721" lon="4.93088">
        <ele>105</ele>
        <time>2026-08-25T08:21:26+00:00</time>
      </trkpt>
      <trkpt lat="50.21732" lon="4.93051">
        <ele>106</ele>
        <time>2026-08-25T08:21:29+00:00</time>
      </trkpt>
      <trkpt lat="50.21759" lon="4.92999">
        <ele>106</ele>
        <time>2026-08-25T08:21:32+00:00</time>
      </trkpt>
      <trkpt lat="50.21779" lon="4.92965">
        <ele>106</ele>
        <time>2026-08-25T08:21:35+00:00</time>
      </trkpt>
      <trkpt lat="50.21799" lon="4.92931">
        <ele>106</ele>
        <time>2026-08-25T08:21:38+00:00</time>
      </trkpt>
      <trkpt lat="50.21822" lon="4.92892">
        <ele>105</ele>
        <time>2026-08-25T08:21:41+00:00</time>
      </trkpt>
      <trkpt lat="50.21826" lon="4.92886">
        <ele>106</ele>
        <time>2026-08-25T08:21:44+00:00</time>
      </trkpt>
      <trkpt lat="50.21834" lon="4.92885">
        <ele>105</ele>
        <time>2026-08-25T08:21:47+00:00</time>
      </trkpt>
      <trkpt lat="50.21851" lon="4.92884">
        <ele>104</ele>
        <time>2026-08-25T08:21:50+00:00</time>
      </trkpt>
      <trkpt lat="50.2187" lon="4.92884">
        <ele>104</ele>
        <time>2026-08-25T08:21:53+00:00</time>
      </trkpt>
      <trkpt lat="50.21882" lon="4.92874">
        <ele>104</ele>
        <time>2026-08-25T08:21:56+00:00</time>
      </trkpt>
      <trkpt lat="50.21895" lon="4.92854">
        <ele>106</ele>
        <time>2026-08-25T08:21:59+00:00</time>
      </trkpt>
      <trkpt lat="50.21909" lon="4.92821">
        <ele>109</ele>
        <time>2026-08-25T08:22:02+00:00</time>
      </trkpt>
      <trkpt lat="50.21914" lon="4.92796">
        <ele>111</ele>
        <time>2026-08-25T08:22:05+00:00</time>
      </trkpt>
      <trkpt lat="50.21915" lon="4.92773">
        <ele>116</ele>
        <time>2026-08-25T08:22:08+00:00</time>
      </trkpt>
      <trkpt lat="50.21917" lon="4.92747">
        <ele>115</ele>
        <time>2026-08-25T08:22:11+00:00</time>
      </trkpt>
      <trkpt lat="50.21915" lon="4.92726">
        <ele>117</ele>
        <time>2026-08-25T08:22:14+00:00</time>
      </trkpt>
      <trkpt lat="50.2191" lon="4.92701">
        <ele>115</ele>
        <time>2026-08-25T08:22:17+00:00</time>
      </trkpt>
      <trkpt lat="50.21905" lon="4.92672">
        <ele>115</ele>
        <time>2026-08-25T08:22:20+00:00</time>
      </trkpt>
      <trkpt lat="50.21889" lon="4.92618">
        <ele>116</ele>
        <time>2026-08-25T08:22:23+00:00</time>
      </trkpt>
      <trkpt lat="50.21874" lon="4.9259">
        <ele>117</ele>
        <time>2026-08-25T08:22:26+00:00</time>
      </trkpt>
      <trkpt lat="50.21841" lon="4.9255">
        <ele>114</ele>
        <time>2026-08-25T08:22:29+00:00</time>
      </trkpt>
      <trkpt lat="50.2184" lon="4.92552">
        <ele>118</ele>
        <time>2026-08-25T08:22:32+00:00</time>
      </trkpt>
      <trkpt lat="50.21841" lon="4.9255">
        <ele>118</ele>
        <time>2026-08-25T08:22:35+00:00</time>
      </trkpt>
      <trkpt lat="50.21847" lon="4.92508">
        <ele>112</ele>
        <time>2026-08-25T08:22:38+00:00</time>
      </trkpt>
      <trkpt lat="50.21849" lon="4.92477">
        <ele>109</ele>
        <time>2026-08-25T08:22:41+00:00</time>
      </trkpt>
      <trkpt lat="50.21847" lon="4.92417">
        <ele>101</ele>
        <time>2026-08-25T08:22:44+00:00</time>
      </trkpt>
      <trkpt lat="50.21843" lon="4.92378">
        <ele>98</ele>
        <time>2026-08-25T08:22:47+00:00</time>
      </trkpt>
      <trkpt lat="50.21841" lon="4.92339">
        <ele>97</ele>
        <time>2026-08-25T08:22:50+00:00</time>
      </trkpt>
      <trkpt lat="50.21838" lon="4.92287">
        <ele>97</ele>
        <time>2026-08-25T08:22:53+00:00</time>
      </trkpt>
      <trkpt lat="50.21838" lon="4.92252">
        <ele>97</ele>
        <time>2026-08-25T08:22:56+00:00</time>
      </trkpt>
      <trkpt lat="50.21838" lon="4.92214">
        <ele>97</ele>
        <time>2026-08-25T08:22:59+00:00</time>
      </trkpt>
      <trkpt lat="50.21825" lon="4.92188">
        <ele>96</ele>
        <time>2026-08-25T08:23:02+00:00</time>
      </trkpt>
      <trkpt lat="50.21807" lon="4.92137">
        <ele>96</ele>
        <time>2026-08-25T08:23:05+00:00</time>
      </trkpt>
      <trkpt lat="50.21789" lon="4.92076">
        <ele>96</ele>
        <time>2026-08-25T08:23:08+00:00</time>
      </trkpt>
      <trkpt lat="50.2178" lon="4.92018">
        <ele>96</ele>
        <time>2026-08-25T08:23:11+00:00</time>
      </trkpt>
      <trkpt lat="50.21777" lon="4.91985">
        <ele>96</ele>
        <time>2026-08-25T08:23:14+00:00</time>
      </trkpt>
      <trkpt lat="50.21774" lon="4.91951">
        <ele>96</ele>
        <time>2026-08-25T08:23:17+00:00</time>
      </trkpt>
      <trkpt lat="50.2177" lon="4.91937">
        <ele>96</ele>
        <time>2026-08-25T08:23:20+00:00</time>
      </trkpt>
      <trkpt lat="50.21772" lon="4.91927">
        <ele>96</ele>
        <time>2026-08-25T08:23:23+00:00</time>
      </trkpt>
      <trkpt lat="50.21788" lon="4.91915">
        <ele>96</ele>
        <time>2026-08-25T08:23:26+00:00</time>
      </trkpt>
      <trkpt lat="50.21809" lon="4.91899">
        <ele>96</ele>
        <time>2026-08-25T08:23:29+00:00</time>
      </trkpt>
      <trkpt lat="50.21811" lon="4.91904">
        <ele>96</ele>
        <time>2026-08-25T08:23:32+00:00</time>
      </trkpt>
      <trkpt lat="50.21817" lon="4.91935">
        <ele>96</ele>
        <time>2026-08-25T08:23:35+00:00</time>
      </trkpt>
      <trkpt lat="50.21823" lon="4.91967">
        <ele>96</ele>
        <time>2026-08-25T08:23:38+00:00</time>
      </trkpt>
      <trkpt lat="50.21829" lon="4.91984">
        <ele>96</ele>
        <time>2026-08-25T08:23:41+00:00</time>
      </trkpt>
      <trkpt lat="50.21846" lon="4.92013">
        <ele>96</ele>
        <time>2026-08-25T08:23:44+00:00</time>
      </trkpt>
      <trkpt lat="50.21855" lon="4.92022">
        <ele>97</ele>
        <time>2026-08-25T08:23:47+00:00</time>
      </trkpt>
      <trkpt lat="50.21867" lon="4.92031">
        <ele>97</ele>
        <time>2026-08-25T08:23:50+00:00</time>
      </trkpt>
      <trkpt lat="50.21875" lon="4.92033">
        <ele>97</ele>
        <time>2026-08-25T08:23:53+00:00</time>
      </trkpt>
      <trkpt lat="50.2188" lon="4.9203">
        <ele>98</ele>
        <time>2026-08-25T08:23:56+00:00</time>
      </trkpt>
      <trkpt lat="50.21893" lon="4.92036">
        <ele>97</ele>
        <time>2026-08-25T08:23:59+00:00</time>
      </trkpt>
      <trkpt lat="50.21901" lon="4.92027">
        <ele>97</ele>
        <time>2026-08-25T08:24:02+00:00</time>
      </trkpt>
      <trkpt lat="50.21902" lon="4.92023">
        <ele>97</ele>
        <time>2026-08-25T08:24:05+00:00</time>
      </trkpt>
      <trkpt lat="50.21896" lon="4.92023">
        <ele>97</ele>
        <time>2026-08-25T08:24:08+00:00</time>
      </trkpt>
      <trkpt lat="50.21902" lon="4.92023">
        <ele>97</ele>
        <time>2026-08-25T08:24:11+00:00</time>
      </trkpt>
      <trkpt lat="50.21902" lon="4.92005">
        <ele>97</ele>
        <time>2026-08-25T08:24:14+00:00</time>
      </trkpt>
      <trkpt lat="50.21913" lon="4.91952">
        <ele>98</ele>
        <time>2026-08-25T08:24:17+00:00</time>
      </trkpt>
      <trkpt lat="50.21919" lon="4.91918">
        <ele>98</ele>
        <time>2026-08-25T08:24:20+00:00</time>
      </trkpt>
      <trkpt lat="50.21926" lon="4.91882">
        <ele>98</ele>
        <time>2026-08-25T08:24:23+00:00</time>
      </trkpt>
      <trkpt lat="50.21938" lon="4.91839">
        <ele>98</ele>
        <time>2026-08-25T08:24:26+00:00</time>
      </trkpt>
      <trkpt lat="50.21949" lon="4.91807">
        <ele>99</ele>
        <time>2026-08-25T08:24:29+00:00</time>
      </trkpt>
      <trkpt lat="50.21961" lon="4.91772">
        <ele>103</ele>
        <time>2026-08-25T08:24:32+00:00</time>
      </trkpt>
      <trkpt lat="50.21973" lon="4.91748">
        <ele>103</ele>
        <time>2026-08-25T08:24:35+00:00</time>
      </trkpt>
      <trkpt lat="50.21977" lon="4.91743">
        <ele>103</ele>
        <time>2026-08-25T08:24:38+00:00</time>
      </trkpt>
      <trkpt lat="50.2199" lon="4.91693">
        <ele>103</ele>
        <time>2026-08-25T08:24:41+00:00</time>
      </trkpt>
      <trkpt lat="50.21996" lon="4.91673">
        <ele>102</ele>
        <time>2026-08-25T08:24:44+00:00</time>
      </trkpt>
      <trkpt lat="50.22005" lon="4.91651">
        <ele>103</ele>
        <time>2026-08-25T08:24:47+00:00</time>
      </trkpt>
      <trkpt lat="50.22015" lon="4.91626">
        <ele>103</ele>
        <time>2026-08-25T08:24:50+00:00</time>
      </trkpt>
      <trkpt lat="50.22025" lon="4.91608">
        <ele>103</ele>
        <time>2026-08-25T08:24:53+00:00</time>
      </trkpt>
      <trkpt lat="50.22043" lon="4.91586">
        <ele>104</ele>
        <time>2026-08-25T08:24:56+00:00</time>
      </trkpt>
      <trkpt lat="50.22075" lon="4.91546">
        <ele>107</ele>
        <time>2026-08-25T08:24:59+00:00</time>
      </trkpt>
      <trkpt lat="50.22099" lon="4.91506">
        <ele>108</ele>
        <time>2026-08-25T08:25:02+00:00</time>
      </trkpt>
      <trkpt lat="50.2211" lon="4.91475">
        <ele>110</ele>
        <time>2026-08-25T08:25:05+00:00</time>
      </trkpt>
      <trkpt lat="50.22123" lon="4.91441">
        <ele>110</ele>
        <time>2026-08-25T08:25:08+00:00</time>
      </trkpt>
      <trkpt lat="50.22125" lon="4.91437">
        <ele>109</ele>
        <time>2026-08-25T08:25:11+00:00</time>
      </trkpt>
      <trkpt lat="50.22137" lon="4.91403">
        <ele>109</ele>
        <time>2026-08-25T08:25:14+00:00</time>
      </trkpt>
      <trkpt lat="50.22157" lon="4.91349">
        <ele>106</ele>
        <time>2026-08-25T08:25:17+00:00</time>
      </trkpt>
      <trkpt lat="50.22167" lon="4.91316">
        <ele>103</ele>
        <time>2026-08-25T08:25:20+00:00</time>
      </trkpt>
      <trkpt lat="50.2218" lon="4.91278">
        <ele>103</ele>
        <time>2026-08-25T08:25:23+00:00</time>
      </trkpt>
      <trkpt lat="50.2219" lon="4.91238">
        <ele>101</ele>
        <time>2026-08-25T08:25:26+00:00</time>
      </trkpt>
      <trkpt lat="50.22208" lon="4.91167">
        <ele>101</ele>
        <time>2026-08-25T08:25:29+00:00</time>
      </trkpt>
      <trkpt lat="50.22218" lon="4.91133">
        <ele>101</ele>
        <time>2026-08-25T08:25:32+00:00</time>
      </trkpt>
      <trkpt lat="50.22231" lon="4.91091">
        <ele>98</ele>
        <time>2026-08-25T08:25:35+00:00</time>
      </trkpt>
      <trkpt lat="50.22237" lon="4.91074">
        <ele>96</ele>
        <time>2026-08-25T08:25:38+00:00</time>
      </trkpt>
      <trkpt lat="50.22243" lon="4.91065">
        <ele>97</ele>
        <time>2026-08-25T08:25:41+00:00</time>
      </trkpt>
      <trkpt lat="50.2225" lon="4.91059">
        <ele>95</ele>
        <time>2026-08-25T08:25:44+00:00</time>
      </trkpt>
      <trkpt lat="50.22258" lon="4.91054">
        <ele>96</ele>
        <time>2026-08-25T08:25:47+00:00</time>
      </trkpt>
      <trkpt lat="50.22263" lon="4.91053">
        <ele>97</ele>
        <time>2026-08-25T08:25:50+00:00</time>
      </trkpt>
      <trkpt lat="50.22272" lon="4.91055">
        <ele>100</ele>
        <time>2026-08-25T08:25:53+00:00</time>
      </trkpt>
      <trkpt lat="50.22283" lon="4.91062">
        <ele>103</ele>
        <time>2026-08-25T08:25:56+00:00</time>
      </trkpt>
      <trkpt lat="50.22295" lon="4.91074">
        <ele>105</ele>
        <time>2026-08-25T08:25:59+00:00</time>
      </trkpt>
      <trkpt lat="50.2231" lon="4.91093">
        <ele>103</ele>
        <time>2026-08-25T08:26:02+00:00</time>
      </trkpt>
      <trkpt lat="50.22331" lon="4.91119">
        <ele>101</ele>
        <time>2026-08-25T08:26:05+00:00</time>
      </trkpt>
      <trkpt lat="50.2235" lon="4.91138">
        <ele>101</ele>
        <time>2026-08-25T08:26:08+00:00</time>
      </trkpt>
      <trkpt lat="50.22366" lon="4.91152">
        <ele>101</ele>
        <time>2026-08-25T08:26:11+00:00</time>
      </trkpt>
      <trkpt lat="50.2238" lon="4.91159">
        <ele>101</ele>
        <time>2026-08-25T08:26:14+00:00</time>
      </trkpt>
      <trkpt lat="50.22379" lon="4.91162">
        <ele>104</ele>
        <time>2026-08-25T08:26:17+00:00</time>
      </trkpt>
      <trkpt lat="50.22375" lon="4.91189">
        <ele>110</ele>
        <time>2026-08-25T08:26:20+00:00</time>
      </trkpt>
      <trkpt lat="50.22369" lon="4.91198">
        <ele>118</ele>
        <time>2026-08-25T08:26:23+00:00</time>
      </trkpt>
      <trkpt lat="50.22362" lon="4.91192">
        <ele>118</ele>
        <time>2026-08-25T08:26:26+00:00</time>
      </trkpt>
      <trkpt lat="50.2235" lon="4.91184">
        <ele>120</ele>
        <time>2026-08-25T08:26:29+00:00</time>
      </trkpt>
      <trkpt lat="50.22337" lon="4.91176">
        <ele>120</ele>
        <time>2026-08-25T08:26:32+00:00</time>
      </trkpt>
      <trkpt lat="50.22311" lon="4.9116">
        <ele>115</ele>
        <time>2026-08-25T08:26:35+00:00</time>
      </trkpt>
      <trkpt lat="50.22261" lon="4.9113">
        <ele>114</ele>
        <time>2026-08-25T08:26:38+00:00</time>
      </trkpt>
      <trkpt lat="50.22249" lon="4.91136">
        <ele>108</ele>
        <time>2026-08-25T08:26:41+00:00</time>
      </trkpt>
      <trkpt lat="50.22253" lon="4.91138">
        <ele>110</ele>
        <time>2026-08-25T08:26:44+00:00</time>
      </trkpt>
      <trkpt lat="50.22267" lon="4.91149">
        <ele>116</ele>
        <time>2026-08-25T08:26:47+00:00</time>
      </trkpt>
      <trkpt lat="50.22284" lon="4.91162">
        <ele>119</ele>
        <time>2026-08-25T08:26:50+00:00</time>
      </trkpt>
      <trkpt lat="50.22312" lon="4.91173">
        <ele>124</ele>
        <time>2026-08-25T08:26:53+00:00</time>
      </trkpt>
      <trkpt lat="50.22341" lon="4.91196">
        <ele>124</ele>
        <time>2026-08-25T08:26:56+00:00</time>
      </trkpt>
      <trkpt lat="50.22358" lon="4.91215">
        <ele>127</ele>
        <time>2026-08-25T08:26:59+00:00</time>
      </trkpt>
      <trkpt lat="50.22369" lon="4.91229">
        <ele>127</ele>
        <time>2026-08-25T08:27:02+00:00</time>
      </trkpt>
      <trkpt lat="50.22371" lon="4.91271">
        <ele>135</ele>
        <time>2026-08-25T08:27:05+00:00</time>
      </trkpt>
      <trkpt lat="50.22378" lon="4.9131">
        <ele>136</ele>
        <time>2026-08-25T08:27:08+00:00</time>
      </trkpt>
      <trkpt lat="50.22391" lon="4.9133">
        <ele>138</ele>
        <time>2026-08-25T08:27:11+00:00</time>
      </trkpt>
      <trkpt lat="50.22388" lon="4.91343">
        <ele>151</ele>
        <time>2026-08-25T08:27:14+00:00</time>
      </trkpt>
      <trkpt lat="50.22387" lon="4.91371">
        <ele>158</ele>
        <time>2026-08-25T08:27:17+00:00</time>
      </trkpt>
      <trkpt lat="50.22394" lon="4.91407">
        <ele>160</ele>
        <time>2026-08-25T08:27:20+00:00</time>
      </trkpt>
      <trkpt lat="50.22412" lon="4.91454">
        <ele>163</ele>
        <time>2026-08-25T08:27:23+00:00</time>
      </trkpt>
      <trkpt lat="50.22415" lon="4.91471">
        <ele>166</ele>
        <time>2026-08-25T08:27:26+00:00</time>
      </trkpt>
      <trkpt lat="50.22419" lon="4.91516">
        <ele>175</ele>
        <time>2026-08-25T08:27:29+00:00</time>
      </trkpt>
      <trkpt lat="50.22429" lon="4.91557">
        <ele>176</ele>
        <time>2026-08-25T08:27:32+00:00</time>
      </trkpt>
      <trkpt lat="50.22441" lon="4.91586">
        <ele>181</ele>
        <time>2026-08-25T08:27:35+00:00</time>
      </trkpt>
      <trkpt lat="50.22451" lon="4.91605">
        <ele>183</ele>
        <time>2026-08-25T08:27:38+00:00</time>
      </trkpt>
      <trkpt lat="50.22462" lon="4.91618">
        <ele>183</ele>
        <time>2026-08-25T08:27:41+00:00</time>
      </trkpt>
      <trkpt lat="50.22474" lon="4.91632">
        <ele>183</ele>
        <time>2026-08-25T08:27:44+00:00</time>
      </trkpt>
      <trkpt lat="50.22494" lon="4.91653">
        <ele>182</ele>
        <time>2026-08-25T08:27:47+00:00</time>
      </trkpt>
      <trkpt lat="50.2252" lon="4.91681">
        <ele>182</ele>
        <time>2026-08-25T08:27:50+00:00</time>
      </trkpt>
      <trkpt lat="50.22549" lon="4.91707">
        <ele>184</ele>
        <time>2026-08-25T08:27:53+00:00</time>
      </trkpt>
      <trkpt lat="50.2256" lon="4.91705">
        <ele>185</ele>
        <time>2026-08-25T08:27:56+00:00</time>
      </trkpt>
      <trkpt lat="50.2257" lon="4.91699">
        <ele>186</ele>
        <time>2026-08-25T08:27:59+00:00</time>
      </trkpt>
      <trkpt lat="50.2258" lon="4.91684">
        <ele>187</ele>
        <time>2026-08-25T08:28:02+00:00</time>
      </trkpt>
      <trkpt lat="50.22586" lon="4.91681">
        <ele>187</ele>
        <time>2026-08-25T08:28:05+00:00</time>
      </trkpt>
      <trkpt lat="50.22594" lon="4.91675">
        <ele>187</ele>
        <time>2026-08-25T08:28:08+00:00</time>
      </trkpt>
      <trkpt lat="50.22615" lon="4.91679">
        <ele>191</ele>
        <time>2026-08-25T08:28:11+00:00</time>
      </trkpt>
      <trkpt lat="50.22646" lon="4.91684">
        <ele>196</ele>
        <time>2026-08-25T08:28:14+00:00</time>
      </trkpt>
      <trkpt lat="50.22678" lon="4.91683">
        <ele>198</ele>
        <time>2026-08-25T08:28:17+00:00</time>
      </trkpt>
      <trkpt lat="50.22684" lon="4.91679">
        <ele>201</ele>
        <time>2026-08-25T08:28:20+00:00</time>
      </trkpt>
      <trkpt lat="50.2269" lon="4.91671">
        <ele>204</ele>
        <time>2026-08-25T08:28:23+00:00</time>
      </trkpt>
      <trkpt lat="50.22695" lon="4.91662">
        <ele>203</ele>
        <time>2026-08-25T08:28:26+00:00</time>
      </trkpt>
      <trkpt lat="50.22701" lon="4.91655">
        <ele>205</ele>
        <time>2026-08-25T08:28:29+00:00</time>
      </trkpt>
      <trkpt lat="50.22708" lon="4.91649">
        <ele>204</ele>
        <time>2026-08-25T08:28:32+00:00</time>
      </trkpt>
      <trkpt lat="50.22712" lon="4.91637">
        <ele>205</ele>
        <time>2026-08-25T08:28:35+00:00</time>
      </trkpt>
      <trkpt lat="50.22714" lon="4.91626">
        <ele>204</ele>
        <time>2026-08-25T08:28:38+00:00</time>
      </trkpt>
      <trkpt lat="50.22713" lon="4.91615">
        <ele>204</ele>
        <time>2026-08-25T08:28:41+00:00</time>
      </trkpt>
      <trkpt lat="50.22725" lon="4.91611">
        <ele>206</ele>
        <time>2026-08-25T08:28:44+00:00</time>
      </trkpt>
      <trkpt lat="50.22735" lon="4.91603">
        <ele>208</ele>
        <time>2026-08-25T08:28:47+00:00</time>
      </trkpt>
      <trkpt lat="50.22749" lon="4.91587">
        <ele>208</ele>
        <time>2026-08-25T08:28:50+00:00</time>
      </trkpt>
      <trkpt lat="50.22766" lon="4.91562">
        <ele>213</ele>
        <time>2026-08-25T08:28:53+00:00</time>
      </trkpt>
      <trkpt lat="50.22778" lon="4.91553">
        <ele>216</ele>
        <time>2026-08-25T08:28:56+00:00</time>
      </trkpt>
      <trkpt lat="50.22789" lon="4.91536">
        <ele>213</ele>
        <time>2026-08-25T08:28:59+00:00</time>
      </trkpt>
      <trkpt lat="50.22801" lon="4.9152">
        <ele>214</ele>
        <time>2026-08-25T08:29:02+00:00</time>
      </trkpt>
      <trkpt lat="50.22821" lon="4.91497">
        <ele>213</ele>
        <time>2026-08-25T08:29:05+00:00</time>
      </trkpt>
      <trkpt lat="50.22837" lon="4.91483">
        <ele>213</ele>
        <time>2026-08-25T08:29:08+00:00</time>
      </trkpt>
      <trkpt lat="50.22854" lon="4.91472">
        <ele>213</ele>
        <time>2026-08-25T08:29:11+00:00</time>
      </trkpt>
      <trkpt lat="50.2285" lon="4.91459">
        <ele>213</ele>
        <time>2026-08-25T08:29:14+00:00</time>
      </trkpt>
      <trkpt lat="50.22867" lon="4.91463">
        <ele>213</ele>
        <time>2026-08-25T08:29:17+00:00</time>
      </trkpt>
      <trkpt lat="50.22885" lon="4.91468">
        <ele>213</ele>
        <time>2026-08-25T08:29:20+00:00</time>
      </trkpt>
      <trkpt lat="50.22902" lon="4.91461">
        <ele>211</ele>
        <time>2026-08-25T08:29:23+00:00</time>
      </trkpt>
      <trkpt lat="50.22913" lon="4.9145">
        <ele>211</ele>
        <time>2026-08-25T08:29:26+00:00</time>
      </trkpt>
      <trkpt lat="50.22916" lon="4.91439">
        <ele>211</ele>
        <time>2026-08-25T08:29:29+00:00</time>
      </trkpt>
      <trkpt lat="50.22918" lon="4.91406">
        <ele>207</ele>
        <time>2026-08-25T08:29:32+00:00</time>
      </trkpt>
      <trkpt lat="50.22925" lon="4.91357">
        <ele>211</ele>
        <time>2026-08-25T08:29:35+00:00</time>
      </trkpt>
      <trkpt lat="50.22933" lon="4.91348">
        <ele>212</ele>
        <time>2026-08-25T08:29:38+00:00</time>
      </trkpt>
      <trkpt lat="50.22957" lon="4.91332">
        <ele>210</ele>
        <time>2026-08-25T08:29:41+00:00</time>
      </trkpt>
      <trkpt lat="50.22964" lon="4.9131">
        <ele>213</ele>
        <time>2026-08-25T08:29:44+00:00</time>
      </trkpt>
      <trkpt lat="50.22973" lon="4.91299">
        <ele>209</ele>
        <time>2026-08-25T08:29:47+00:00</time>
      </trkpt>
      <trkpt lat="50.22979" lon="4.91284">
        <ele>207</ele>
        <time>2026-08-25T08:29:50+00:00</time>
      </trkpt>
      <trkpt lat="50.22986" lon="4.91259">
        <ele>200</ele>
        <time>2026-08-25T08:29:53+00:00</time>
      </trkpt>
      <trkpt lat="50.22998" lon="4.91239">
        <ele>196</ele>
        <time>2026-08-25T08:29:56+00:00</time>
      </trkpt>
      <trkpt lat="50.23022" lon="4.91209">
        <ele>194</ele>
        <time>2026-08-25T08:29:59+00:00</time>
      </trkpt>
      <trkpt lat="50.23036" lon="4.91202">
        <ele>195</ele>
        <time>2026-08-25T08:30:02+00:00</time>
      </trkpt>
      <trkpt lat="50.2306" lon="4.91199">
        <ele>190</ele>
        <time>2026-08-25T08:30:05+00:00</time>
      </trkpt>
      <trkpt lat="50.23074" lon="4.9119">
        <ele>187</ele>
        <time>2026-08-25T08:30:08+00:00</time>
      </trkpt>
      <trkpt lat="50.23073" lon="4.91179">
        <ele>184</ele>
        <time>2026-08-25T08:30:11+00:00</time>
      </trkpt>
      <trkpt lat="50.23052" lon="4.91168">
        <ele>183</ele>
        <time>2026-08-25T08:30:14+00:00</time>
      </trkpt>
      <trkpt lat="50.23074" lon="4.91137">
        <ele>175</ele>
        <time>2026-08-25T08:30:17+00:00</time>
      </trkpt>
      <trkpt lat="50.23072" lon="4.91136">
        <ele>175</ele>
        <time>2026-08-25T08:30:20+00:00</time>
      </trkpt>
      <trkpt lat="50.23074" lon="4.91137">
        <ele>175</ele>
        <time>2026-08-25T08:30:23+00:00</time>
      </trkpt>
      <trkpt lat="50.23078" lon="4.9112">
        <ele>173</ele>
        <time>2026-08-25T08:30:26+00:00</time>
      </trkpt>
      <trkpt lat="50.23079" lon="4.91102">
        <ele>170</ele>
        <time>2026-08-25T08:30:29+00:00</time>
      </trkpt>
      <trkpt lat="50.23078" lon="4.9108">
        <ele>165</ele>
        <time>2026-08-25T08:30:32+00:00</time>
      </trkpt>
      <trkpt lat="50.23073" lon="4.91051">
        <ele>159</ele>
        <time>2026-08-25T08:30:35+00:00</time>
      </trkpt>
      <trkpt lat="50.23067" lon="4.9101">
        <ele>151</ele>
        <time>2026-08-25T08:30:38+00:00</time>
      </trkpt>
      <trkpt lat="50.23065" lon="4.90987">
        <ele>148</ele>
        <time>2026-08-25T08:30:41+00:00</time>
      </trkpt>
      <trkpt lat="50.23061" lon="4.90964">
        <ele>149</ele>
        <time>2026-08-25T08:30:44+00:00</time>
      </trkpt>
      <trkpt lat="50.23074" lon="4.90958">
        <ele>146</ele>
        <time>2026-08-25T08:30:47+00:00</time>
      </trkpt>
      <trkpt lat="50.23087" lon="4.90944">
        <ele>149</ele>
        <time>2026-08-25T08:30:50+00:00</time>
      </trkpt>
      <trkpt lat="50.23101" lon="4.9093">
        <ele>149</ele>
        <time>2026-08-25T08:30:53+00:00</time>
      </trkpt>
      <trkpt lat="50.23114" lon="4.90909">
        <ele>149</ele>
        <time>2026-08-25T08:30:56+00:00</time>
      </trkpt>
      <trkpt lat="50.23122" lon="4.9089">
        <ele>149</ele>
        <time>2026-08-25T08:30:59+00:00</time>
      </trkpt>
      <trkpt lat="50.2312" lon="4.90868">
        <ele>149</ele>
        <time>2026-08-25T08:31:02+00:00</time>
      </trkpt>
      <trkpt lat="50.23122" lon="4.90845">
        <ele>149</ele>
        <time>2026-08-25T08:31:05+00:00</time>
      </trkpt>
      <trkpt lat="50.23114" lon="4.90828">
        <ele>149</ele>
        <time>2026-08-25T08:31:08+00:00</time>
      </trkpt>
      <trkpt lat="50.23119" lon="4.90787">
        <ele>149</ele>
        <time>2026-08-25T08:31:11+00:00</time>
      </trkpt>
      <trkpt lat="50.23116" lon="4.90751">
        <ele>150</ele>
        <time>2026-08-25T08:31:14+00:00</time>
      </trkpt>
      <trkpt lat="50.23112" lon="4.90709">
        <ele>154</ele>
        <time>2026-08-25T08:31:17+00:00</time>
      </trkpt>
      <trkpt lat="50.23109" lon="4.90657">
        <ele>156</ele>
        <time>2026-08-25T08:31:20+00:00</time>
      </trkpt>
      <trkpt lat="50.2311" lon="4.90627">
        <ele>157</ele>
        <time>2026-08-25T08:31:23+00:00</time>
      </trkpt>
      <trkpt lat="50.23102" lon="4.90596">
        <ele>158</ele>
        <time>2026-08-25T08:31:26+00:00</time>
      </trkpt>
      <trkpt lat="50.23097" lon="4.90563">
        <ele>161</ele>
        <time>2026-08-25T08:31:29+00:00</time>
      </trkpt>
      <trkpt lat="50.23091" lon="4.90529">
        <ele>163</ele>
        <time>2026-08-25T08:31:32+00:00</time>
      </trkpt>
      <trkpt lat="50.23071" lon="4.90495">
        <ele>164</ele>
        <time>2026-08-25T08:31:35+00:00</time>
      </trkpt>
      <trkpt lat="50.23056" lon="4.90476">
        <ele>162</ele>
        <time>2026-08-25T08:31:38+00:00</time>
      </trkpt>
      <trkpt lat="50.23036" lon="4.90439">
        <ele>161</ele>
        <time>2026-08-25T08:31:41+00:00</time>
      </trkpt>
      <trkpt lat="50.23029" lon="4.90391">
        <ele>160</ele>
        <time>2026-08-25T08:31:44+00:00</time>
      </trkpt>
      <trkpt lat="50.2303" lon="4.90377">
        <ele>159</ele>
        <time>2026-08-25T08:31:47+00:00</time>
      </trkpt>
      <trkpt lat="50.2303" lon="4.90333">
        <ele>159</ele>
        <time>2026-08-25T08:31:50+00:00</time>
      </trkpt>
      <trkpt lat="50.23027" lon="4.903">
        <ele>159</ele>
        <time>2026-08-25T08:31:53+00:00</time>
      </trkpt>
      <trkpt lat="50.23004" lon="4.90245">
        <ele>160</ele>
        <time>2026-08-25T08:31:56+00:00</time>
      </trkpt>
      <trkpt lat="50.23008" lon="4.90204">
        <ele>160</ele>
        <time>2026-08-25T08:31:59+00:00</time>
      </trkpt>
      <trkpt lat="50.23016" lon="4.90197">
        <ele>160</ele>
        <time>2026-08-25T08:32:02+00:00</time>
      </trkpt>
      <trkpt lat="50.23036" lon="4.90189">
        <ele>161</ele>
        <time>2026-08-25T08:32:05+00:00</time>
      </trkpt>
      <trkpt lat="50.23059" lon="4.90172">
        <ele>160</ele>
        <time>2026-08-25T08:32:08+00:00</time>
      </trkpt>
      <trkpt lat="50.23057" lon="4.9015">
        <ele>161</ele>
        <time>2026-08-25T08:32:11+00:00</time>
      </trkpt>
      <trkpt lat="50.23046" lon="4.90124">
        <ele>159</ele>
        <time>2026-08-25T08:32:14+00:00</time>
      </trkpt>
      <trkpt lat="50.23027" lon="4.90094">
        <ele>158</ele>
        <time>2026-08-25T08:32:17+00:00</time>
      </trkpt>
      <trkpt lat="50.23007" lon="4.90047">
        <ele>155</ele>
        <time>2026-08-25T08:32:20+00:00</time>
      </trkpt>
      <trkpt lat="50.23016" lon="4.90038">
        <ele>147</ele>
        <time>2026-08-25T08:32:23+00:00</time>
      </trkpt>
      <trkpt lat="50.23043" lon="4.9003">
        <ele>153</ele>
        <time>2026-08-25T08:32:26+00:00</time>
      </trkpt>
      <trkpt lat="50.23076" lon="4.90042">
        <ele>153</ele>
        <time>2026-08-25T08:32:29+00:00</time>
      </trkpt>
      <trkpt lat="50.2309" lon="4.90036">
        <ele>148</ele>
        <time>2026-08-25T08:32:32+00:00</time>
      </trkpt>
      <trkpt lat="50.23106" lon="4.90018">
        <ele>150</ele>
        <time>2026-08-25T08:32:35+00:00</time>
      </trkpt>
      <trkpt lat="50.23106" lon="4.90023">
        <ele>140</ele>
        <time>2026-08-25T08:32:38+00:00</time>
      </trkpt>
      <trkpt lat="50.23109" lon="4.90045">
        <ele>147</ele>
        <time>2026-08-25T08:32:41+00:00</time>
      </trkpt>
      <trkpt lat="50.23113" lon="4.90064">
        <ele>145</ele>
        <time>2026-08-25T08:32:44+00:00</time>
      </trkpt>
      <trkpt lat="50.23121" lon="4.90091">
        <ele>144</ele>
        <time>2026-08-25T08:32:47+00:00</time>
      </trkpt>
      <trkpt lat="50.23131" lon="4.90121">
        <ele>144</ele>
        <time>2026-08-25T08:32:50+00:00</time>
      </trkpt>
      <trkpt lat="50.23142" lon="4.90152">
        <ele>145</ele>
        <time>2026-08-25T08:32:53+00:00</time>
      </trkpt>
      <trkpt lat="50.23162" lon="4.90204">
        <ele>146</ele>
        <time>2026-08-25T08:32:56+00:00</time>
      </trkpt>
      <trkpt lat="50.23183" lon="4.90254">
        <ele>149</ele>
        <time>2026-08-25T08:32:59+00:00</time>
      </trkpt>
      <trkpt lat="50.23208" lon="4.90305">
        <ele>151</ele>
        <time>2026-08-25T08:33:02+00:00</time>
      </trkpt>
      <trkpt lat="50.23222" lon="4.90325">
        <ele>151</ele>
        <time>2026-08-25T08:33:05+00:00</time>
      </trkpt>
      <trkpt lat="50.23225" lon="4.90332">
        <ele>152</ele>
        <time>2026-08-25T08:33:08+00:00</time>
      </trkpt>
      <trkpt lat="50.23246" lon="4.90353">
        <ele>150</ele>
        <time>2026-08-25T08:33:11+00:00</time>
      </trkpt>
      <trkpt lat="50.23263" lon="4.90368">
        <ele>150</ele>
        <time>2026-08-25T08:33:14+00:00</time>
      </trkpt>
      <trkpt lat="50.23283" lon="4.90382">
        <ele>150</ele>
        <time>2026-08-25T08:33:17+00:00</time>
      </trkpt>
      <trkpt lat="50.23292" lon="4.90393">
        <ele>149</ele>
        <time>2026-08-25T08:33:20+00:00</time>
      </trkpt>
      <trkpt lat="50.23306" lon="4.90416">
        <ele>150</ele>
        <time>2026-08-25T08:33:23+00:00</time>
      </trkpt>
      <trkpt lat="50.23315" lon="4.90435">
        <ele>151</ele>
        <time>2026-08-25T08:33:26+00:00</time>
      </trkpt>
      <trkpt lat="50.23337" lon="4.90422">
        <ele>145</ele>
        <time>2026-08-25T08:33:29+00:00</time>
      </trkpt>
      <trkpt lat="50.2336" lon="4.90443">
        <ele>142</ele>
        <time>2026-08-25T08:33:32+00:00</time>
      </trkpt>
      <trkpt lat="50.23397" lon="4.90476">
        <ele>139</ele>
        <time>2026-08-25T08:33:35+00:00</time>
      </trkpt>
      <trkpt lat="50.23412" lon="4.90488">
        <ele>135</ele>
        <time>2026-08-25T08:33:38+00:00</time>
      </trkpt>
      <trkpt lat="50.23418" lon="4.90503">
        <ele>137</ele>
        <time>2026-08-25T08:33:41+00:00</time>
      </trkpt>
      <trkpt lat="50.23422" lon="4.9053">
        <ele>137</ele>
        <time>2026-08-25T08:33:44+00:00</time>
      </trkpt>
      <trkpt lat="50.23426" lon="4.90542">
        <ele>138</ele>
        <time>2026-08-25T08:33:47+00:00</time>
      </trkpt>
      <trkpt lat="50.2343" lon="4.9055">
        <ele>139</ele>
        <time>2026-08-25T08:33:50+00:00</time>
      </trkpt>
      <trkpt lat="50.23437" lon="4.90559">
        <ele>137</ele>
        <time>2026-08-25T08:33:53+00:00</time>
      </trkpt>
      <trkpt lat="50.2345" lon="4.90547">
        <ele>134</ele>
        <time>2026-08-25T08:33:56+00:00</time>
      </trkpt>
      <trkpt lat="50.23466" lon="4.90554">
        <ele>131</ele>
        <time>2026-08-25T08:33:59+00:00</time>
      </trkpt>
      <trkpt lat="50.2348" lon="4.90563">
        <ele>128</ele>
        <time>2026-08-25T08:34:02+00:00</time>
      </trkpt>
      <trkpt lat="50.23493" lon="4.90575">
        <ele>131</ele>
        <time>2026-08-25T08:34:05+00:00</time>
      </trkpt>
      <trkpt lat="50.23509" lon="4.90601">
        <ele>131</ele>
        <time>2026-08-25T08:34:08+00:00</time>
      </trkpt>
      <trkpt lat="50.23517" lon="4.90623">
        <ele>133</ele>
        <time>2026-08-25T08:34:11+00:00</time>
      </trkpt>
      <trkpt lat="50.23515" lon="4.90623">
        <ele>133</ele>
        <time>2026-08-25T08:34:14+00:00</time>
      </trkpt>
      <trkpt lat="50.23517" lon="4.90623">
        <ele>133</ele>
        <time>2026-08-25T08:34:17+00:00</time>
      </trkpt>
      <trkpt lat="50.23524" lon="4.90631">
        <ele>133</ele>
        <time>2026-08-25T08:34:20+00:00</time>
      </trkpt>
      <trkpt lat="50.23537" lon="4.90648">
        <ele>133</ele>
        <time>2026-08-25T08:34:23+00:00</time>
      </trkpt>
      <trkpt lat="50.2355" lon="4.90667">
        <ele>133</ele>
        <time>2026-08-25T08:34:26+00:00</time>
      </trkpt>
      <trkpt lat="50.23583" lon="4.90692">
        <ele>133</ele>
        <time>2026-08-25T08:34:29+00:00</time>
      </trkpt>
      <trkpt lat="50.23598" lon="4.90728">
        <ele>133</ele>
        <time>2026-08-25T08:34:32+00:00</time>
      </trkpt>
      <trkpt lat="50.23624" lon="4.90791">
        <ele>134</ele>
        <time>2026-08-25T08:34:35+00:00</time>
      </trkpt>
      <trkpt lat="50.23639" lon="4.90824">
        <ele>134</ele>
        <time>2026-08-25T08:34:38+00:00</time>
      </trkpt>
      <trkpt lat="50.23639" lon="4.90836">
        <ele>134</ele>
        <time>2026-08-25T08:34:41+00:00</time>
      </trkpt>
      <trkpt lat="50.23647" lon="4.90851">
        <ele>134</ele>
        <time>2026-08-25T08:34:44+00:00</time>
      </trkpt>
      <trkpt lat="50.23661" lon="4.90887">
        <ele>131</ele>
        <time>2026-08-25T08:34:47+00:00</time>
      </trkpt>
      <trkpt lat="50.23666" lon="4.90898">
        <ele>131</ele>
        <time>2026-08-25T08:34:50+00:00</time>
      </trkpt>
      <trkpt lat="50.2368" lon="4.90917">
        <ele>128</ele>
        <time>2026-08-25T08:34:53+00:00</time>
      </trkpt>
      <trkpt lat="50.23696" lon="4.90939">
        <ele>128</ele>
        <time>2026-08-25T08:34:56+00:00</time>
      </trkpt>
      <trkpt lat="50.23728" lon="4.90976">
        <ele>123</ele>
        <time>2026-08-25T08:34:59+00:00</time>
      </trkpt>
      <trkpt lat="50.23746" lon="4.91">
        <ele>120</ele>
        <time>2026-08-25T08:35:02+00:00</time>
      </trkpt>
      <trkpt lat="50.23769" lon="4.91029">
        <ele>117</ele>
        <time>2026-08-25T08:35:05+00:00</time>
      </trkpt>
      <trkpt lat="50.23781" lon="4.91043">
        <ele>114</ele>
        <time>2026-08-25T08:35:08+00:00</time>
      </trkpt>
      <trkpt lat="50.23783" lon="4.91034">
        <ele>113</ele>
        <time>2026-08-25T08:35:11+00:00</time>
      </trkpt>
      <trkpt lat="50.23785" lon="4.91015">
        <ele>112</ele>
        <time>2026-08-25T08:35:14+00:00</time>
      </trkpt>
      <trkpt lat="50.23785" lon="4.90996">
        <ele>111</ele>
        <time>2026-08-25T08:35:17+00:00</time>
      </trkpt>
      <trkpt lat="50.23786" lon="4.90993">
        <ele>111</ele>
        <time>2026-08-25T08:35:20+00:00</time>
      </trkpt>
      <trkpt lat="50.23792" lon="4.90995">
        <ele>109</ele>
        <time>2026-08-25T08:35:23+00:00</time>
      </trkpt>
      <trkpt lat="50.23803" lon="4.91007">
        <ele>106</ele>
        <time>2026-08-25T08:35:26+00:00</time>
      </trkpt>
      <trkpt lat="50.23804" lon="4.91005">
        <ele>106</ele>
        <time>2026-08-25T08:35:29+00:00</time>
      </trkpt>
      <trkpt lat="50.23802" lon="4.90984">
        <ele>104</ele>
        <time>2026-08-25T08:35:32+00:00</time>
      </trkpt>
      <trkpt lat="50.23817" lon="4.91006">
        <ele>104</ele>
        <time>2026-08-25T08:35:35+00:00</time>
      </trkpt>
      <trkpt lat="50.23807" lon="4.9098">
        <ele>104</ele>
        <time>2026-08-25T08:35:38+00:00</time>
      </trkpt>
      <trkpt lat="50.23805" lon="4.90969">
        <ele>101</ele>
        <time>2026-08-25T08:35:41+00:00</time>
      </trkpt>
      <trkpt lat="50.23805" lon="4.90965">
        <ele>101</ele>
        <time>2026-08-25T08:35:44+00:00</time>
      </trkpt>
      <trkpt lat="50.23806" lon="4.90961">
        <ele>101</ele>
        <time>2026-08-25T08:35:47+00:00</time>
      </trkpt>
      <trkpt lat="50.23817" lon="4.90929">
        <ele>96</ele>
        <time>2026-08-25T08:35:50+00:00</time>
      </trkpt>
      <trkpt lat="50.2382" lon="4.90918">
        <ele>92</ele>
        <time>2026-08-25T08:35:53+00:00</time>
      </trkpt>
      <trkpt lat="50.23821" lon="4.909">
        <ele>92</ele>
        <time>2026-08-25T08:35:56+00:00</time>
      </trkpt>
      <trkpt lat="50.23827" lon="4.90852">
        <ele>92</ele>
        <time>2026-08-25T08:35:59+00:00</time>
      </trkpt>
      <trkpt lat="50.23831" lon="4.90818">
        <ele>92</ele>
        <time>2026-08-25T08:36:02+00:00</time>
      </trkpt>
      <trkpt lat="50.23835" lon="4.90781">
        <ele>92</ele>
        <time>2026-08-25T08:36:05+00:00</time>
      </trkpt>
      <trkpt lat="50.23857" lon="4.90793">
        <ele>92</ele>
        <time>2026-08-25T08:36:08+00:00</time>
      </trkpt>
      <trkpt lat="50.23877" lon="4.90805">
        <ele>91</ele>
        <time>2026-08-25T08:36:11+00:00</time>
      </trkpt>
      <trkpt lat="50.23898" lon="4.90817">
        <ele>91</ele>
        <time>2026-08-25T08:36:14+00:00</time>
      </trkpt>
      <trkpt lat="50.23906" lon="4.90821">
        <ele>93</ele>
        <time>2026-08-25T08:36:17+00:00</time>
      </trkpt>
      <trkpt lat="50.23912" lon="4.90827">
        <ele>93</ele>
        <time>2026-08-25T08:36:20+00:00</time>
      </trkpt>
      <trkpt lat="50.23916" lon="4.90834">
        <ele>91</ele>
        <time>2026-08-25T08:36:23+00:00</time>
      </trkpt>
      <trkpt lat="50.2392" lon="4.90873">
        <ele>92</ele>
        <time>2026-08-25T08:36:26+00:00</time>
      </trkpt>
      <trkpt lat="50.2392" lon="4.90885">
        <ele>91</ele>
        <time>2026-08-25T08:36:29+00:00</time>
      </trkpt>
      <trkpt lat="50.23924" lon="4.90932">
        <ele>92</ele>
        <time>2026-08-25T08:36:32+00:00</time>
      </trkpt>
      <trkpt lat="50.23931" lon="4.9093">
        <ele>92</ele>
        <time>2026-08-25T08:36:35+00:00</time>
      </trkpt>
      <trkpt lat="50.23951" lon="4.90926">
        <ele>91</ele>
        <time>2026-08-25T08:36:38+00:00</time>
      </trkpt>
      <trkpt lat="50.23974" lon="4.90922">
        <ele>91</ele>
        <time>2026-08-25T08:36:41+00:00</time>
      </trkpt>
      <trkpt lat="50.2399" lon="4.90918">
        <ele>91</ele>
        <time>2026-08-25T08:36:44+00:00</time>
      </trkpt>
      <trkpt lat="50.23997" lon="4.90917">
        <ele>91</ele>
        <time>2026-08-25T08:36:47+00:00</time>
      </trkpt>
      <trkpt lat="50.23998" lon="4.90915">
        <ele>91</ele>
        <time>2026-08-25T08:36:50+00:00</time>
      </trkpt>
      <trkpt lat="50.24004" lon="4.9091">
        <ele>91</ele>
        <time>2026-08-25T08:36:53+00:00</time>
      </trkpt>
      <trkpt lat="50.2401" lon="4.90913">
        <ele>91</ele>
        <time>2026-08-25T08:36:56+00:00</time>
      </trkpt>
      <trkpt lat="50.24026" lon="4.90908">
        <ele>93</ele>
        <time>2026-08-25T08:36:59+00:00</time>
      </trkpt>
      <trkpt lat="50.24032" lon="4.90884">
        <ele>94</ele>
        <time>2026-08-25T08:37:02+00:00</time>
      </trkpt>
      <trkpt lat="50.24036" lon="4.90879">
        <ele>94</ele>
        <time>2026-08-25T08:37:05+00:00</time>
      </trkpt>
      <trkpt lat="50.24045" lon="4.909">
        <ele>95</ele>
        <time>2026-08-25T08:37:08+00:00</time>
      </trkpt>
      <trkpt lat="50.24052" lon="4.90933">
        <ele>96</ele>
        <time>2026-08-25T08:37:11+00:00</time>
      </trkpt>
      <trkpt lat="50.24056" lon="4.91">
        <ele>96</ele>
        <time>2026-08-25T08:37:14+00:00</time>
      </trkpt>
      <trkpt lat="50.24057" lon="4.91047">
        <ele>95</ele>
        <time>2026-08-25T08:37:17+00:00</time>
      </trkpt>
      <trkpt lat="50.24059" lon="4.91093">
        <ele>95</ele>
        <time>2026-08-25T08:37:20+00:00</time>
      </trkpt>
      <trkpt lat="50.24061" lon="4.91151">
        <ele>95</ele>
        <time>2026-08-25T08:37:23+00:00</time>
      </trkpt>
      <trkpt lat="50.24063" lon="4.91185">
        <ele>96</ele>
        <time>2026-08-25T08:37:26+00:00</time>
      </trkpt>
      <trkpt lat="50.24066" lon="4.91219">
        <ele>96</ele>
        <time>2026-08-25T08:37:29+00:00</time>
      </trkpt>
      <trkpt lat="50.24069" lon="4.91243">
        <ele>95</ele>
        <time>2026-08-25T08:37:32+00:00</time>
      </trkpt>
      <trkpt lat="50.24073" lon="4.91239">
        <ele>96</ele>
        <time>2026-08-25T08:37:35+00:00</time>
      </trkpt>
      <trkpt lat="50.24075" lon="4.91246">
        <ele>96</ele>
        <time>2026-08-25T08:37:38+00:00</time>
      </trkpt>
      <trkpt lat="50.24084" lon="4.91261">
        <ele>98</ele>
        <time>2026-08-25T08:37:41+00:00</time>
      </trkpt>
      <trkpt lat="50.24085" lon="4.91268">
        <ele>98</ele>
        <time>2026-08-25T08:37:44+00:00</time>
      </trkpt>
      <trkpt lat="50.24085" lon="4.91278">
        <ele>98</ele>
        <time>2026-08-25T08:37:47+00:00</time>
      </trkpt>
      <trkpt lat="50.24086" lon="4.91281">
        <ele>97</ele>
        <time>2026-08-25T08:37:50+00:00</time>
      </trkpt>
      <trkpt lat="50.24089" lon="4.91284">
        <ele>97</ele>
        <time>2026-08-25T08:37:53+00:00</time>
      </trkpt>
      <trkpt lat="50.24096" lon="4.91247">
        <ele>98</ele>
        <time>2026-08-25T08:37:56+00:00</time>
      </trkpt>
      <trkpt lat="50.241" lon="4.91244">
        <ele>98</ele>
        <time>2026-08-25T08:37:59+00:00</time>
      </trkpt>
      <trkpt lat="50.24119" lon="4.9124">
        <ele>100</ele>
        <time>2026-08-25T08:38:02+00:00</time>
      </trkpt>
      <trkpt lat="50.24122" lon="4.9124">
        <ele>111</ele>
        <time>2026-08-25T08:38:05+00:00</time>
      </trkpt>
      <trkpt lat="50.24128" lon="4.91296">
        <ele>104</ele>
        <time>2026-08-25T08:38:08+00:00</time>
      </trkpt>
      <trkpt lat="50.24131" lon="4.91336">
        <ele>109</ele>
        <time>2026-08-25T08:38:11+00:00</time>
      </trkpt>
      <trkpt lat="50.2414" lon="4.91401">
        <ele>108</ele>
        <time>2026-08-25T08:38:14+00:00</time>
      </trkpt>
      <trkpt lat="50.24148" lon="4.91438">
        <ele>108</ele>
        <time>2026-08-25T08:38:17+00:00</time>
      </trkpt>
      <trkpt lat="50.24159" lon="4.91488">
        <ele>107</ele>
        <time>2026-08-25T08:38:20+00:00</time>
      </trkpt>
      <trkpt lat="50.24177" lon="4.91532">
        <ele>112</ele>
        <time>2026-08-25T08:38:23+00:00</time>
      </trkpt>
      <trkpt lat="50.24193" lon="4.91557">
        <ele>114</ele>
        <time>2026-08-25T08:38:26+00:00</time>
      </trkpt>
      <trkpt lat="50.24211" lon="4.91583">
        <ele>113</ele>
        <time>2026-08-25T08:38:29+00:00</time>
      </trkpt>
      <trkpt lat="50.24234" lon="4.91616">
        <ele>113</ele>
        <time>2026-08-25T08:38:32+00:00</time>
      </trkpt>
      <trkpt lat="50.24264" lon="4.91664">
        <ele>111</ele>
        <time>2026-08-25T08:38:35+00:00</time>
      </trkpt>
      <trkpt lat="50.24282" lon="4.91686">
        <ele>110</ele>
        <time>2026-08-25T08:38:38+00:00</time>
      </trkpt>
      <trkpt lat="50.24303" lon="4.91712">
        <ele>108</ele>
        <time>2026-08-25T08:38:41+00:00</time>
      </trkpt>
      <trkpt lat="50.24323" lon="4.91731">
        <ele>106</ele>
        <time>2026-08-25T08:38:44+00:00</time>
      </trkpt>
      <trkpt lat="50.24349" lon="4.91756">
        <ele>103</ele>
        <time>2026-08-25T08:38:47+00:00</time>
      </trkpt>
      <trkpt lat="50.24384" lon="4.91771">
        <ele>102</ele>
        <time>2026-08-25T08:38:50+00:00</time>
      </trkpt>
      <trkpt lat="50.24411" lon="4.91774">
        <ele>101</ele>
        <time>2026-08-25T08:38:53+00:00</time>
      </trkpt>
      <trkpt lat="50.24454" lon="4.91778">
        <ele>99</ele>
        <time>2026-08-25T08:38:56+00:00</time>
      </trkpt>
      <trkpt lat="50.2447" lon="4.91763">
        <ele>99</ele>
        <time>2026-08-25T08:38:59+00:00</time>
      </trkpt>
      <trkpt lat="50.24495" lon="4.91765">
        <ele>99</ele>
        <time>2026-08-25T08:39:02+00:00</time>
      </trkpt>
      <trkpt lat="50.24509" lon="4.9177">
        <ele>98</ele>
        <time>2026-08-25T08:39:05+00:00</time>
      </trkpt>
      <trkpt lat="50.24514" lon="4.91766">
        <ele>98</ele>
        <time>2026-08-25T08:39:08+00:00</time>
      </trkpt>
      <trkpt lat="50.2452" lon="4.91763">
        <ele>96</ele>
        <time>2026-08-25T08:39:11+00:00</time>
      </trkpt>
      <trkpt lat="50.24544" lon="4.91757">
        <ele>98</ele>
        <time>2026-08-25T08:39:14+00:00</time>
      </trkpt>
      <trkpt lat="50.24584" lon="4.91746">
        <ele>98</ele>
        <time>2026-08-25T08:39:17+00:00</time>
      </trkpt>
      <trkpt lat="50.24605" lon="4.91738">
        <ele>98</ele>
        <time>2026-08-25T08:39:20+00:00</time>
      </trkpt>
      <trkpt lat="50.24632" lon="4.91724">
        <ele>98</ele>
        <time>2026-08-25T08:39:23+00:00</time>
      </trkpt>
      <trkpt lat="50.24635" lon="4.91718">
        <ele>99</ele>
        <time>2026-08-25T08:39:26+00:00</time>
      </trkpt>
      <trkpt lat="50.24637" lon="4.91712">
        <ele>99</ele>
        <time>2026-08-25T08:39:29+00:00</time>
      </trkpt>
      <trkpt lat="50.24636" lon="4.91705">
        <ele>101</ele>
        <time>2026-08-25T08:39:32+00:00</time>
      </trkpt>
      <trkpt lat="50.2463" lon="4.91675">
        <ele>102</ele>
        <time>2026-08-25T08:39:35+00:00</time>
      </trkpt>
      <trkpt lat="50.24629" lon="4.91663">
        <ele>103</ele>
        <time>2026-08-25T08:39:38+00:00</time>
      </trkpt>
      <trkpt lat="50.24629" lon="4.91654">
        <ele>104</ele>
        <time>2026-08-25T08:39:41+00:00</time>
      </trkpt>
      <trkpt lat="50.24631" lon="4.91645">
        <ele>105</ele>
        <time>2026-08-25T08:39:44+00:00</time>
      </trkpt>
      <trkpt lat="50.24636" lon="4.91636">
        <ele>106</ele>
        <time>2026-08-25T08:39:47+00:00</time>
      </trkpt>
      <trkpt lat="50.24643" lon="4.9163">
        <ele>106</ele>
        <time>2026-08-25T08:39:50+00:00</time>
      </trkpt>
      <trkpt lat="50.24662" lon="4.91612">
        <ele>107</ele>
        <time>2026-08-25T08:39:53+00:00</time>
      </trkpt>
      <trkpt lat="50.24696" lon="4.91579">
        <ele>109</ele>
        <time>2026-08-25T08:39:56+00:00</time>
      </trkpt>
      <trkpt lat="50.24712" lon="4.91572">
        <ele>110</ele>
        <time>2026-08-25T08:39:59+00:00</time>
      </trkpt>
      <trkpt lat="50.24726" lon="4.91563">
        <ele>111</ele>
        <time>2026-08-25T08:40:02+00:00</time>
      </trkpt>
      <trkpt lat="50.24741" lon="4.91552">
        <ele>111</ele>
        <time>2026-08-25T08:40:05+00:00</time>
      </trkpt>
      <trkpt lat="50.24763" lon="4.91542">
        <ele>112</ele>
        <time>2026-08-25T08:40:08+00:00</time>
      </trkpt>
      <trkpt lat="50.24789" lon="4.91531">
        <ele>112</ele>
        <time>2026-08-25T08:40:11+00:00</time>
      </trkpt>
      <trkpt lat="50.24801" lon="4.91523">
        <ele>111</ele>
        <time>2026-08-25T08:40:14+00:00</time>
      </trkpt>
      <trkpt lat="50.24802" lon="4.9152">
        <ele>114</ele>
        <time>2026-08-25T08:40:17+00:00</time>
      </trkpt>
      <trkpt lat="50.2481" lon="4.91515">
        <ele>112</ele>
        <time>2026-08-25T08:40:20+00:00</time>
      </trkpt>
      <trkpt lat="50.24832" lon="4.91508">
        <ele>112</ele>
        <time>2026-08-25T08:40:23+00:00</time>
      </trkpt>
      <trkpt lat="50.24855" lon="4.91501">
        <ele>109</ele>
        <time>2026-08-25T08:40:26+00:00</time>
      </trkpt>
      <trkpt lat="50.24872" lon="4.915">
        <ele>108</ele>
        <time>2026-08-25T08:40:29+00:00</time>
      </trkpt>
      <trkpt lat="50.2488" lon="4.91503">
        <ele>105</ele>
        <time>2026-08-25T08:40:32+00:00</time>
      </trkpt>
      <trkpt lat="50.24911" lon="4.91498">
        <ele>105</ele>
        <time>2026-08-25T08:40:35+00:00</time>
      </trkpt>
      <trkpt lat="50.24941" lon="4.91492">
        <ele>104</ele>
        <time>2026-08-25T08:40:38+00:00</time>
      </trkpt>
      <trkpt lat="50.24989" lon="4.91484">
        <ele>104</ele>
        <time>2026-08-25T08:40:41+00:00</time>
      </trkpt>
      <trkpt lat="50.25012" lon="4.91466">
        <ele>105</ele>
        <time>2026-08-25T08:40:44+00:00</time>
      </trkpt>
      <trkpt lat="50.25047" lon="4.91438">
        <ele>109</ele>
        <time>2026-08-25T08:40:47+00:00</time>
      </trkpt>
      <trkpt lat="50.2505" lon="4.91437">
        <ele>115</ele>
        <time>2026-08-25T08:40:50+00:00</time>
      </trkpt>
      <trkpt lat="50.25071" lon="4.91437">
        <ele>113</ele>
        <time>2026-08-25T08:40:53+00:00</time>
      </trkpt>
      <trkpt lat="50.25082" lon="4.91424">
        <ele>111</ele>
        <time>2026-08-25T08:40:56+00:00</time>
      </trkpt>
      <trkpt lat="50.25088" lon="4.91414">
        <ele>114</ele>
        <time>2026-08-25T08:40:59+00:00</time>
      </trkpt>
      <trkpt lat="50.25107" lon="4.91397">
        <ele>112</ele>
        <time>2026-08-25T08:41:02+00:00</time>
      </trkpt>
      <trkpt lat="50.25118" lon="4.91379">
        <ele>114</ele>
        <time>2026-08-25T08:41:05+00:00</time>
      </trkpt>
      <trkpt lat="50.25127" lon="4.91361">
        <ele>112</ele>
        <time>2026-08-25T08:41:08+00:00</time>
      </trkpt>
      <trkpt lat="50.25136" lon="4.91341">
        <ele>113</ele>
        <time>2026-08-25T08:41:11+00:00</time>
      </trkpt>
      <trkpt lat="50.25159" lon="4.91323">
        <ele>124</ele>
        <time>2026-08-25T08:41:14+00:00</time>
      </trkpt>
      <trkpt lat="50.25193" lon="4.91296">
        <ele>127</ele>
        <time>2026-08-25T08:41:17+00:00</time>
      </trkpt>
      <trkpt lat="50.25206" lon="4.91284">
        <ele>127</ele>
        <time>2026-08-25T08:41:20+00:00</time>
      </trkpt>
      <trkpt lat="50.25232" lon="4.91276">
        <ele>127</ele>
        <time>2026-08-25T08:41:23+00:00</time>
      </trkpt>
      <trkpt lat="50.25257" lon="4.91268">
        <ele>126</ele>
        <time>2026-08-25T08:41:26+00:00</time>
      </trkpt>
      <trkpt lat="50.25294" lon="4.91256">
        <ele>126</ele>
        <time>2026-08-25T08:41:29+00:00</time>
      </trkpt>
      <trkpt lat="50.25311" lon="4.91244">
        <ele>129</ele>
        <time>2026-08-25T08:41:32+00:00</time>
      </trkpt>
      <trkpt lat="50.25333" lon="4.91204">
        <ele>132</ele>
        <time>2026-08-25T08:41:35+00:00</time>
      </trkpt>
      <trkpt lat="50.25332" lon="4.91192">
        <ele>134</ele>
        <time>2026-08-25T08:41:38+00:00</time>
      </trkpt>
      <trkpt lat="50.25336" lon="4.91181">
        <ele>136</ele>
        <time>2026-08-25T08:41:41+00:00</time>
      </trkpt>
      <trkpt lat="50.2534" lon="4.91178">
        <ele>138</ele>
        <time>2026-08-25T08:41:44+00:00</time>
      </trkpt>
      <trkpt lat="50.25343" lon="4.91174">
        <ele>137</ele>
        <time>2026-08-25T08:41:47+00:00</time>
      </trkpt>
      <trkpt lat="50.25351" lon="4.91168">
        <ele>138</ele>
        <time>2026-08-25T08:41:50+00:00</time>
      </trkpt>
      <trkpt lat="50.25362" lon="4.91165">
        <ele>138</ele>
        <time>2026-08-25T08:41:53+00:00</time>
      </trkpt>
      <trkpt lat="50.25385" lon="4.9116">
        <ele>133</ele>
        <time>2026-08-25T08:41:56+00:00</time>
      </trkpt>
      <trkpt lat="50.25414" lon="4.91154">
        <ele>131</ele>
        <time>2026-08-25T08:41:59+00:00</time>
      </trkpt>
      <trkpt lat="50.2544" lon="4.91154">
        <ele>127</ele>
        <time>2026-08-25T08:42:02+00:00</time>
      </trkpt>
      <trkpt lat="50.2548" lon="4.91154">
        <ele>126</ele>
        <time>2026-08-25T08:42:05+00:00</time>
      </trkpt>
      <trkpt lat="50.25511" lon="4.91157">
        <ele>124</ele>
        <time>2026-08-25T08:42:08+00:00</time>
      </trkpt>
      <trkpt lat="50.25542" lon="4.91159">
        <ele>122</ele>
        <time>2026-08-25T08:42:11+00:00</time>
      </trkpt>
      <trkpt lat="50.25593" lon="4.91164">
        <ele>115</ele>
        <time>2026-08-25T08:42:14+00:00</time>
      </trkpt>
      <trkpt lat="50.25616" lon="4.91156">
        <ele>115</ele>
        <time>2026-08-25T08:42:17+00:00</time>
      </trkpt>
      <trkpt lat="50.25644" lon="4.91147">
        <ele>113</ele>
        <time>2026-08-25T08:42:20+00:00</time>
      </trkpt>
      <trkpt lat="50.25657" lon="4.91139">
        <ele>114</ele>
        <time>2026-08-25T08:42:23+00:00</time>
      </trkpt>
      <trkpt lat="50.25664" lon="4.91133">
        <ele>113</ele>
        <time>2026-08-25T08:42:26+00:00</time>
      </trkpt>
      <trkpt lat="50.25678" lon="4.91125">
        <ele>114</ele>
        <time>2026-08-25T08:42:29+00:00</time>
      </trkpt>
      <trkpt lat="50.25691" lon="4.9112">
        <ele>113</ele>
        <time>2026-08-25T08:42:32+00:00</time>
      </trkpt>
      <trkpt lat="50.25711" lon="4.9111">
        <ele>113</ele>
        <time>2026-08-25T08:42:35+00:00</time>
      </trkpt>
      <trkpt lat="50.25718" lon="4.91105">
        <ele>115</ele>
        <time>2026-08-25T08:42:38+00:00</time>
      </trkpt>
      <trkpt lat="50.25724" lon="4.91094">
        <ele>116</ele>
        <time>2026-08-25T08:42:41+00:00</time>
      </trkpt>
      <trkpt lat="50.2573" lon="4.91093">
        <ele>116</ele>
        <time>2026-08-25T08:42:44+00:00</time>
      </trkpt>
      <trkpt lat="50.25765" lon="4.91077">
        <ele>114</ele>
        <time>2026-08-25T08:42:47+00:00</time>
      </trkpt>
      <trkpt lat="50.25802" lon="4.91059">
        <ele>113</ele>
        <time>2026-08-25T08:42:50+00:00</time>
      </trkpt>
      <trkpt lat="50.25835" lon="4.91041">
        <ele>108</ele>
        <time>2026-08-25T08:42:53+00:00</time>
      </trkpt>
      <trkpt lat="50.25842" lon="4.91033">
        <ele>106</ele>
        <time>2026-08-25T08:42:56+00:00</time>
      </trkpt>
      <trkpt lat="50.25855" lon="4.91013">
        <ele>110</ele>
        <time>2026-08-25T08:42:59+00:00</time>
      </trkpt>
      <trkpt lat="50.25838" lon="4.90989">
        <ele>112</ele>
        <time>2026-08-25T08:43:02+00:00</time>
      </trkpt>
      <trkpt lat="50.25819" lon="4.90962">
        <ele>112</ele>
        <time>2026-08-25T08:43:05+00:00</time>
      </trkpt>
      <trkpt lat="50.25799" lon="4.90929">
        <ele>112</ele>
        <time>2026-08-25T08:43:08+00:00</time>
      </trkpt>
      <trkpt lat="50.25789" lon="4.90907">
        <ele>112</ele>
        <time>2026-08-25T08:43:11+00:00</time>
      </trkpt>
      <trkpt lat="50.25813" lon="4.90911">
        <ele>105</ele>
        <time>2026-08-25T08:43:14+00:00</time>
      </trkpt>
      <trkpt lat="50.25836" lon="4.9092">
        <ele>103</ele>
        <time>2026-08-25T08:43:17+00:00</time>
      </trkpt>
      <trkpt lat="50.25865" lon="4.90932">
        <ele>102</ele>
        <time>2026-08-25T08:43:20+00:00</time>
      </trkpt>
      <trkpt lat="50.25885" lon="4.90943">
        <ele>100</ele>
        <time>2026-08-25T08:43:23+00:00</time>
      </trkpt>
      <trkpt lat="50.2591" lon="4.9096">
        <ele>104</ele>
        <time>2026-08-25T08:43:26+00:00</time>
      </trkpt>
      <trkpt lat="50.2592" lon="4.90949">
        <ele>104</ele>
        <time>2026-08-25T08:43:29+00:00</time>
      </trkpt>
      <trkpt lat="50.25941" lon="4.90919">
        <ele>108</ele>
        <time>2026-08-25T08:43:32+00:00</time>
      </trkpt>
      <trkpt lat="50.25958" lon="4.90899">
        <ele>112</ele>
        <time>2026-08-25T08:43:35+00:00</time>
      </trkpt>
      <trkpt lat="50.25976" lon="4.90878">
        <ele>111</ele>
        <time>2026-08-25T08:43:38+00:00</time>
      </trkpt>
      <trkpt lat="50.25971" lon="4.90872">
        <ele>114</ele>
        <time>2026-08-25T08:43:41+00:00</time>
      </trkpt>
      <trkpt lat="50.25948" lon="4.909">
        <ele>111</ele>
        <time>2026-08-25T08:43:44+00:00</time>
      </trkpt>
      <trkpt lat="50.25936" lon="4.90905">
        <ele>112</ele>
        <time>2026-08-25T08:43:47+00:00</time>
      </trkpt>
      <trkpt lat="50.25924" lon="4.90898">
        <ele>115</ele>
        <time>2026-08-25T08:43:50+00:00</time>
      </trkpt>
      <trkpt lat="50.25914" lon="4.90891">
        <ele>116</ele>
        <time>2026-08-25T08:43:53+00:00</time>
      </trkpt>
      <trkpt lat="50.25905" lon="4.90883">
        <ele>119</ele>
        <time>2026-08-25T08:43:56+00:00</time>
      </trkpt>
      <trkpt lat="50.25894" lon="4.90867">
        <ele>124</ele>
        <time>2026-08-25T08:43:59+00:00</time>
      </trkpt>
      <trkpt lat="50.25888" lon="4.90864">
        <ele>124</ele>
        <time>2026-08-25T08:44:02+00:00</time>
      </trkpt>
      <trkpt lat="50.25879" lon="4.9085">
        <ele>129</ele>
        <time>2026-08-25T08:44:05+00:00</time>
      </trkpt>
      <trkpt lat="50.25868" lon="4.90831">
        <ele>132</ele>
        <time>2026-08-25T08:44:08+00:00</time>
      </trkpt>
      <trkpt lat="50.25868" lon="4.9083">
        <ele>132</ele>
        <time>2026-08-25T08:44:11+00:00</time>
      </trkpt>
      <trkpt lat="50.25862" lon="4.90821">
        <ele>133</ele>
        <time>2026-08-25T08:44:14+00:00</time>
      </trkpt>
      <trkpt lat="50.25861" lon="4.90816">
        <ele>135</ele>
        <time>2026-08-25T08:44:17+00:00</time>
      </trkpt>
      <trkpt lat="50.2585" lon="4.90786">
        <ele>142</ele>
        <time>2026-08-25T08:44:20+00:00</time>
      </trkpt>
      <trkpt lat="50.25825" lon="4.90763">
        <ele>145</ele>
        <time>2026-08-25T08:44:23+00:00</time>
      </trkpt>
      <trkpt lat="50.25819" lon="4.90746">
        <ele>149</ele>
        <time>2026-08-25T08:44:26+00:00</time>
      </trkpt>
      <trkpt lat="50.2582" lon="4.90722">
        <ele>154</ele>
        <time>2026-08-25T08:44:29+00:00</time>
      </trkpt>
      <trkpt lat="50.25818" lon="4.90698">
        <ele>162</ele>
        <time>2026-08-25T08:44:32+00:00</time>
      </trkpt>
      <trkpt lat="50.25824" lon="4.90695">
        <ele>154</ele>
        <time>2026-08-25T08:44:35+00:00</time>
      </trkpt>
      <trkpt lat="50.25825" lon="4.907">
        <ele>159</ele>
        <time>2026-08-25T08:44:38+00:00</time>
      </trkpt>
      <trkpt lat="50.25829" lon="4.90708">
        <ele>159</ele>
        <time>2026-08-25T08:44:41+00:00</time>
      </trkpt>
      <trkpt lat="50.25856" lon="4.9071">
        <ele>154</ele>
        <time>2026-08-25T08:44:44+00:00</time>
      </trkpt>
      <trkpt lat="50.25885" lon="4.90707">
        <ele>153</ele>
        <time>2026-08-25T08:44:47+00:00</time>
      </trkpt>
      <trkpt lat="50.25907" lon="4.907">
        <ele>152</ele>
        <time>2026-08-25T08:44:50+00:00</time>
      </trkpt>
      <trkpt lat="50.2593" lon="4.90692">
        <ele>148</ele>
        <time>2026-08-25T08:44:53+00:00</time>
      </trkpt>
      <trkpt lat="50.25939" lon="4.90693">
        <ele>146</ele>
        <time>2026-08-25T08:44:56+00:00</time>
      </trkpt>
      <trkpt lat="50.25948" lon="4.90699">
        <ele>146</ele>
        <time>2026-08-25T08:44:59+00:00</time>
      </trkpt>
      <trkpt lat="50.25927" lon="4.90708">
        <ele>146</ele>
        <time>2026-08-25T08:45:02+00:00</time>
      </trkpt>
      <trkpt lat="50.25905" lon="4.90718">
        <ele>146</ele>
        <time>2026-08-25T08:45:05+00:00</time>
      </trkpt>
      <trkpt lat="50.2589" lon="4.90724">
        <ele>145</ele>
        <time>2026-08-25T08:45:08+00:00</time>
      </trkpt>
    </trkseg>
  </trk>
</gpx>
